<?xml version="1.0" encoding="UTF-8" standalone="no" ?>
<gpx xmlns="http://www.topografix.com/GPX/1/1" xmlns:xsi="http://www.w3.org/2001/XMLSchema-instance" xsi:schemaLocation="http://www.topografix.com/GPX/1/1 http://www.topografix.com/GPX/1/1/gpx.xsd" version="1.1" creator="VisuGPX - https://www.visugpx.com">
  <metadata>
    <name>Saint Gratien: 23 MARS 2022 14:01</name>
  </metadata>
  <trk>
    <name><![CDATA[Saint Gratien: 23 MARS 2022 14:01]]></name>
    <trkseg>
      <trkpt lat="49.96504" lon="2.40872">
        <ele>143.37</ele>
        <time>2022-03-23T13:01:02Z</time>
      </trkpt>
      <trkpt lat="49.96514" lon="2.40876">
        <ele>132.32</ele>
        <time>2022-03-23T13:01:21Z</time>
      </trkpt>
      <trkpt lat="49.96515" lon="2.40882">
        <ele>124.15</ele>
        <time>2022-03-23T13:01:34Z</time>
      </trkpt>
      <trkpt lat="49.96517" lon="2.40894">
        <ele>116.94</ele>
        <time>2022-03-23T13:01:51Z</time>
      </trkpt>
      <trkpt lat="49.9652" lon="2.40891">
        <ele>115.5</ele>
        <time>2022-03-23T13:02:04Z</time>
      </trkpt>
      <trkpt lat="49.9652" lon="2.40891">
        <ele>113.57</ele>
        <time>2022-03-23T13:02:17Z</time>
      </trkpt>
      <trkpt lat="49.9652" lon="2.40896">
        <ele>113.09</ele>
        <time>2022-03-23T13:02:36Z</time>
      </trkpt>
      <trkpt lat="49.9652" lon="2.40892">
        <ele>114.05</ele>
        <time>2022-03-23T13:02:49Z</time>
      </trkpt>
      <trkpt lat="49.96522" lon="2.40891">
        <ele>113.57</ele>
        <time>2022-03-23T13:03:06Z</time>
      </trkpt>
      <trkpt lat="49.96521" lon="2.40893">
        <ele>115.01</ele>
        <time>2022-03-23T13:03:23Z</time>
      </trkpt>
      <trkpt lat="49.96522" lon="2.40893">
        <ele>116.46</ele>
        <time>2022-03-23T13:03:49Z</time>
      </trkpt>
      <trkpt lat="49.96522" lon="2.40892">
        <ele>115.5</ele>
        <time>2022-03-23T13:04:01Z</time>
      </trkpt>
      <trkpt lat="49.96522" lon="2.40892">
        <ele>115.01</ele>
        <time>2022-03-23T13:04:16Z</time>
      </trkpt>
      <trkpt lat="49.96522" lon="2.40891">
        <ele>115.5</ele>
        <time>2022-03-23T13:04:36Z</time>
      </trkpt>
      <trkpt lat="49.96524" lon="2.40891">
        <ele>112.61</ele>
        <time>2022-03-23T13:04:58Z</time>
      </trkpt>
      <trkpt lat="49.96524" lon="2.40893">
        <ele>112.13</ele>
        <time>2022-03-23T13:05:08Z</time>
      </trkpt>
      <trkpt lat="49.96523" lon="2.40891">
        <ele>111.65</ele>
        <time>2022-03-23T13:05:29Z</time>
      </trkpt>
      <trkpt lat="49.96523" lon="2.40892">
        <ele>111.17</ele>
        <time>2022-03-23T13:05:46Z</time>
      </trkpt>
      <trkpt lat="49.9652" lon="2.40889">
        <ele>112.13</ele>
        <time>2022-03-23T13:06:03Z</time>
      </trkpt>
      <trkpt lat="49.96514" lon="2.40881">
        <ele>112.61</ele>
        <time>2022-03-23T13:06:12Z</time>
      </trkpt>
      <trkpt lat="49.96515" lon="2.40855">
        <ele>113.57</ele>
        <time>2022-03-23T13:06:27Z</time>
      </trkpt>
      <trkpt lat="49.9652" lon="2.40824">
        <ele>114.05</ele>
        <time>2022-03-23T13:06:44Z</time>
      </trkpt>
      <trkpt lat="49.96524" lon="2.40796">
        <ele>113.57</ele>
        <time>2022-03-23T13:07:00Z</time>
      </trkpt>
      <trkpt lat="49.96526" lon="2.4077">
        <ele>113.57</ele>
        <time>2022-03-23T13:07:14Z</time>
      </trkpt>
      <trkpt lat="49.9653" lon="2.40748">
        <ele>113.09</ele>
        <time>2022-03-23T13:07:26Z</time>
      </trkpt>
      <trkpt lat="49.96515" lon="2.40735">
        <ele>113.57</ele>
        <time>2022-03-23T13:07:40Z</time>
      </trkpt>
      <trkpt lat="49.96499" lon="2.40724">
        <ele>113.57</ele>
        <time>2022-03-23T13:07:54Z</time>
      </trkpt>
      <trkpt lat="49.96477" lon="2.4071">
        <ele>113.57</ele>
        <time>2022-03-23T13:08:12Z</time>
      </trkpt>
      <trkpt lat="49.96456" lon="2.40699">
        <ele>113.57</ele>
        <time>2022-03-23T13:08:29Z</time>
      </trkpt>
      <trkpt lat="49.96437" lon="2.40688">
        <ele>113.09</ele>
        <time>2022-03-23T13:08:46Z</time>
      </trkpt>
      <trkpt lat="49.96433" lon="2.40686">
        <ele>113.09</ele>
        <time>2022-03-23T13:08:49Z</time>
      </trkpt>
      <trkpt lat="49.96432" lon="2.40668">
        <ele>112.61</ele>
        <time>2022-03-23T13:08:57Z</time>
      </trkpt>
      <trkpt lat="49.96432" lon="2.40633">
        <ele>115.5</ele>
        <time>2022-03-23T13:09:13Z</time>
      </trkpt>
      <trkpt lat="49.96432" lon="2.40607">
        <ele>115.5</ele>
        <time>2022-03-23T13:09:27Z</time>
      </trkpt>
      <trkpt lat="49.96432" lon="2.40582">
        <ele>115.5</ele>
        <time>2022-03-23T13:09:40Z</time>
      </trkpt>
      <trkpt lat="49.96422" lon="2.40567">
        <ele>113.57</ele>
        <time>2022-03-23T13:09:52Z</time>
      </trkpt>
      <trkpt lat="49.96407" lon="2.40556">
        <ele>110.69</ele>
        <time>2022-03-23T13:10:07Z</time>
      </trkpt>
      <trkpt lat="49.9639" lon="2.40542">
        <ele>109.73</ele>
        <time>2022-03-23T13:10:22Z</time>
      </trkpt>
      <trkpt lat="49.96372" lon="2.40526">
        <ele>108.77</ele>
        <time>2022-03-23T13:10:38Z</time>
      </trkpt>
      <trkpt lat="49.96356" lon="2.40511">
        <ele>107.81</ele>
        <time>2022-03-23T13:10:53Z</time>
      </trkpt>
      <trkpt lat="49.96338" lon="2.40496">
        <ele>107.81</ele>
        <time>2022-03-23T13:11:09Z</time>
      </trkpt>
      <trkpt lat="49.96317" lon="2.40479">
        <ele>107.81</ele>
        <time>2022-03-23T13:11:27Z</time>
      </trkpt>
      <trkpt lat="49.96311" lon="2.40476">
        <ele>106.36</ele>
        <time>2022-03-23T13:11:33Z</time>
      </trkpt>
      <trkpt lat="49.96309" lon="2.40477">
        <ele>106.36</ele>
        <time>2022-03-23T13:11:35Z</time>
      </trkpt>
      <trkpt lat="49.96302" lon="2.40494">
        <ele>106.36</ele>
        <time>2022-03-23T13:11:47Z</time>
      </trkpt>
      <trkpt lat="49.96295" lon="2.40517">
        <ele>108.29</ele>
        <time>2022-03-23T13:12:00Z</time>
      </trkpt>
      <trkpt lat="49.96285" lon="2.40543">
        <ele>106.84</ele>
        <time>2022-03-23T13:12:15Z</time>
      </trkpt>
      <trkpt lat="49.96276" lon="2.4057">
        <ele>106.84</ele>
        <time>2022-03-23T13:12:28Z</time>
      </trkpt>
      <trkpt lat="49.96273" lon="2.40574">
        <ele>106.84</ele>
        <time>2022-03-23T13:12:31Z</time>
      </trkpt>
      <trkpt lat="49.96257" lon="2.40569">
        <ele>106.84</ele>
        <time>2022-03-23T13:12:44Z</time>
      </trkpt>
      <trkpt lat="49.96239" lon="2.40555">
        <ele>106.36</ele>
        <time>2022-03-23T13:12:59Z</time>
      </trkpt>
      <trkpt lat="49.9622" lon="2.40537">
        <ele>105.4</ele>
        <time>2022-03-23T13:13:15Z</time>
      </trkpt>
      <trkpt lat="49.96202" lon="2.40524">
        <ele>103.48</ele>
        <time>2022-03-23T13:13:30Z</time>
      </trkpt>
      <trkpt lat="49.96185" lon="2.40513">
        <ele>105.4</ele>
        <time>2022-03-23T13:13:43Z</time>
      </trkpt>
      <trkpt lat="49.96171" lon="2.405">
        <ele>104.44</ele>
        <time>2022-03-23T13:13:56Z</time>
      </trkpt>
      <trkpt lat="49.96155" lon="2.40482">
        <ele>103</ele>
        <time>2022-03-23T13:14:10Z</time>
      </trkpt>
      <trkpt lat="49.9614" lon="2.40457">
        <ele>101.56</ele>
        <time>2022-03-23T13:14:24Z</time>
      </trkpt>
      <trkpt lat="49.9613" lon="2.40437">
        <ele>99.63</ele>
        <time>2022-03-23T13:14:38Z</time>
      </trkpt>
      <trkpt lat="49.9612" lon="2.4042">
        <ele>100.11</ele>
        <time>2022-03-23T13:14:50Z</time>
      </trkpt>
      <trkpt lat="49.96105" lon="2.40396">
        <ele>102.52</ele>
        <time>2022-03-23T13:15:04Z</time>
      </trkpt>
      <trkpt lat="49.9609" lon="2.40371">
        <ele>102.52</ele>
        <time>2022-03-23T13:15:19Z</time>
      </trkpt>
      <trkpt lat="49.96073" lon="2.40343">
        <ele>100.11</ele>
        <time>2022-03-23T13:15:36Z</time>
      </trkpt>
      <trkpt lat="49.96059" lon="2.40315">
        <ele>97.23</ele>
        <time>2022-03-23T13:15:51Z</time>
      </trkpt>
      <trkpt lat="49.96044" lon="2.40282">
        <ele>94.35</ele>
        <time>2022-03-23T13:16:09Z</time>
      </trkpt>
      <trkpt lat="49.96031" lon="2.40255">
        <ele>91.46</ele>
        <time>2022-03-23T13:16:25Z</time>
      </trkpt>
      <trkpt lat="49.96019" lon="2.40229">
        <ele>88.58</ele>
        <time>2022-03-23T13:16:40Z</time>
      </trkpt>
      <trkpt lat="49.96008" lon="2.40203">
        <ele>85.69</ele>
        <time>2022-03-23T13:16:55Z</time>
      </trkpt>
      <trkpt lat="49.95994" lon="2.40173">
        <ele>82.81</ele>
        <time>2022-03-23T13:17:13Z</time>
      </trkpt>
      <trkpt lat="49.95982" lon="2.4015">
        <ele>80.41</ele>
        <time>2022-03-23T13:17:27Z</time>
      </trkpt>
      <trkpt lat="49.95965" lon="2.40128">
        <ele>78.48</ele>
        <time>2022-03-23T13:17:43Z</time>
      </trkpt>
      <trkpt lat="49.95948" lon="2.40111">
        <ele>76.56</ele>
        <time>2022-03-23T13:17:58Z</time>
      </trkpt>
      <trkpt lat="49.95928" lon="2.40091">
        <ele>75.12</ele>
        <time>2022-03-23T13:18:16Z</time>
      </trkpt>
      <trkpt lat="49.95909" lon="2.40066">
        <ele>73.68</ele>
        <time>2022-03-23T13:18:34Z</time>
      </trkpt>
      <trkpt lat="49.95894" lon="2.40066">
        <ele>73.2</ele>
        <time>2022-03-23T13:18:48Z</time>
      </trkpt>
      <trkpt lat="49.95878" lon="2.40095">
        <ele>73.68</ele>
        <time>2022-03-23T13:19:06Z</time>
      </trkpt>
      <trkpt lat="49.95863" lon="2.40125">
        <ele>73.2</ele>
        <time>2022-03-23T13:19:24Z</time>
      </trkpt>
      <trkpt lat="49.95849" lon="2.40151">
        <ele>72.24</ele>
        <time>2022-03-23T13:19:40Z</time>
      </trkpt>
      <trkpt lat="49.95834" lon="2.4018">
        <ele>71.76</ele>
        <time>2022-03-23T13:19:57Z</time>
      </trkpt>
      <trkpt lat="49.95821" lon="2.40208">
        <ele>72.72</ele>
        <time>2022-03-23T13:20:14Z</time>
      </trkpt>
      <trkpt lat="49.95807" lon="2.40236">
        <ele>72.24</ele>
        <time>2022-03-23T13:20:30Z</time>
      </trkpt>
      <trkpt lat="49.95792" lon="2.40266">
        <ele>72.24</ele>
        <time>2022-03-23T13:20:48Z</time>
      </trkpt>
      <trkpt lat="49.95777" lon="2.4029">
        <ele>71.76</ele>
        <time>2022-03-23T13:21:04Z</time>
      </trkpt>
      <trkpt lat="49.95762" lon="2.4031">
        <ele>71.76</ele>
        <time>2022-03-23T13:21:18Z</time>
      </trkpt>
      <trkpt lat="49.95747" lon="2.4033">
        <ele>72.72</ele>
        <time>2022-03-23T13:21:33Z</time>
      </trkpt>
      <trkpt lat="49.9574" lon="2.4034">
        <ele>72.24</ele>
        <time>2022-03-23T13:21:41Z</time>
      </trkpt>
      <trkpt lat="49.95728" lon="2.40355">
        <ele>72.24</ele>
        <time>2022-03-23T13:21:54Z</time>
      </trkpt>
      <trkpt lat="49.95714" lon="2.40376">
        <ele>72.72</ele>
        <time>2022-03-23T13:22:09Z</time>
      </trkpt>
      <trkpt lat="49.95697" lon="2.40399">
        <ele>70.79</ele>
        <time>2022-03-23T13:22:24Z</time>
      </trkpt>
      <trkpt lat="49.95683" lon="2.40422">
        <ele>69.83</ele>
        <time>2022-03-23T13:22:39Z</time>
      </trkpt>
      <trkpt lat="49.95668" lon="2.40444">
        <ele>69.35</ele>
        <time>2022-03-23T13:22:55Z</time>
      </trkpt>
      <trkpt lat="49.95654" lon="2.40471">
        <ele>68.39</ele>
        <time>2022-03-23T13:23:11Z</time>
      </trkpt>
      <trkpt lat="49.95639" lon="2.40495">
        <ele>67.91</ele>
        <time>2022-03-23T13:23:27Z</time>
      </trkpt>
      <trkpt lat="49.95625" lon="2.40523">
        <ele>67.43</ele>
        <time>2022-03-23T13:23:44Z</time>
      </trkpt>
      <trkpt lat="49.95609" lon="2.40559">
        <ele>66.95</ele>
        <time>2022-03-23T13:24:05Z</time>
      </trkpt>
      <trkpt lat="49.95598" lon="2.40586">
        <ele>65.99</ele>
        <time>2022-03-23T13:24:20Z</time>
      </trkpt>
      <trkpt lat="49.95588" lon="2.40619">
        <ele>65.03</ele>
        <time>2022-03-23T13:24:37Z</time>
      </trkpt>
      <trkpt lat="49.95582" lon="2.40652">
        <ele>65.03</ele>
        <time>2022-03-23T13:24:54Z</time>
      </trkpt>
      <trkpt lat="49.95574" lon="2.40685">
        <ele>65.03</ele>
        <time>2022-03-23T13:25:10Z</time>
      </trkpt>
      <trkpt lat="49.95566" lon="2.40721">
        <ele>63.1</ele>
        <time>2022-03-23T13:25:28Z</time>
      </trkpt>
      <trkpt lat="49.95558" lon="2.40751">
        <ele>63.1</ele>
        <time>2022-03-23T13:25:43Z</time>
      </trkpt>
      <trkpt lat="49.95549" lon="2.4078">
        <ele>63.1</ele>
        <time>2022-03-23T13:25:58Z</time>
      </trkpt>
      <trkpt lat="49.95538" lon="2.40813">
        <ele>63.58</ele>
        <time>2022-03-23T13:26:16Z</time>
      </trkpt>
      <trkpt lat="49.95525" lon="2.40845">
        <ele>62.62</ele>
        <time>2022-03-23T13:26:34Z</time>
      </trkpt>
      <trkpt lat="49.95513" lon="2.40877">
        <ele>63.1</ele>
        <time>2022-03-23T13:26:51Z</time>
      </trkpt>
      <trkpt lat="49.95504" lon="2.40903">
        <ele>62.62</ele>
        <time>2022-03-23T13:27:05Z</time>
      </trkpt>
      <trkpt lat="49.95493" lon="2.40934">
        <ele>62.14</ele>
        <time>2022-03-23T13:27:22Z</time>
      </trkpt>
      <trkpt lat="49.9548" lon="2.40967">
        <ele>61.66</ele>
        <time>2022-03-23T13:27:40Z</time>
      </trkpt>
      <trkpt lat="49.95472" lon="2.40988">
        <ele>60.7</ele>
        <time>2022-03-23T13:27:53Z</time>
      </trkpt>
      <trkpt lat="49.95469" lon="2.40997">
        <ele>61.18</ele>
        <time>2022-03-23T13:27:58Z</time>
      </trkpt>
      <trkpt lat="49.9546" lon="2.41016">
        <ele>61.66</ele>
        <time>2022-03-23T13:28:11Z</time>
      </trkpt>
      <trkpt lat="49.95446" lon="2.4104">
        <ele>61.18</ele>
        <time>2022-03-23T13:28:26Z</time>
      </trkpt>
      <trkpt lat="49.95432" lon="2.41062">
        <ele>61.66</ele>
        <time>2022-03-23T13:28:41Z</time>
      </trkpt>
      <trkpt lat="49.95418" lon="2.41087">
        <ele>62.14</ele>
        <time>2022-03-23T13:28:57Z</time>
      </trkpt>
      <trkpt lat="49.95405" lon="2.4111">
        <ele>62.62</ele>
        <time>2022-03-23T13:29:12Z</time>
      </trkpt>
      <trkpt lat="49.9539" lon="2.41137">
        <ele>63.1</ele>
        <time>2022-03-23T13:29:29Z</time>
      </trkpt>
      <trkpt lat="49.95376" lon="2.4116">
        <ele>63.58</ele>
        <time>2022-03-23T13:29:44Z</time>
      </trkpt>
      <trkpt lat="49.95362" lon="2.41187">
        <ele>63.1</ele>
        <time>2022-03-23T13:30:01Z</time>
      </trkpt>
      <trkpt lat="49.9535" lon="2.4121">
        <ele>64.07</ele>
        <time>2022-03-23T13:30:16Z</time>
      </trkpt>
      <trkpt lat="49.95337" lon="2.4123">
        <ele>63.58</ele>
        <time>2022-03-23T13:30:29Z</time>
      </trkpt>
      <trkpt lat="49.9532" lon="2.41256">
        <ele>62.62</ele>
        <time>2022-03-23T13:30:47Z</time>
      </trkpt>
      <trkpt lat="49.953" lon="2.41283">
        <ele>63.58</ele>
        <time>2022-03-23T13:31:06Z</time>
      </trkpt>
      <trkpt lat="49.95283" lon="2.41306">
        <ele>63.58</ele>
        <time>2022-03-23T13:31:22Z</time>
      </trkpt>
      <trkpt lat="49.95265" lon="2.41327">
        <ele>63.1</ele>
        <time>2022-03-23T13:31:39Z</time>
      </trkpt>
      <trkpt lat="49.9525" lon="2.41349">
        <ele>63.58</ele>
        <time>2022-03-23T13:31:54Z</time>
      </trkpt>
      <trkpt lat="49.95232" lon="2.41376">
        <ele>64.07</ele>
        <time>2022-03-23T13:32:12Z</time>
      </trkpt>
      <trkpt lat="49.95217" lon="2.41397">
        <ele>63.58</ele>
        <time>2022-03-23T13:32:27Z</time>
      </trkpt>
      <trkpt lat="49.95201" lon="2.41421">
        <ele>62.62</ele>
        <time>2022-03-23T13:32:43Z</time>
      </trkpt>
      <trkpt lat="49.95184" lon="2.41446">
        <ele>62.14</ele>
        <time>2022-03-23T13:33:00Z</time>
      </trkpt>
      <trkpt lat="49.95163" lon="2.41474">
        <ele>61.18</ele>
        <time>2022-03-23T13:33:19Z</time>
      </trkpt>
      <trkpt lat="49.95143" lon="2.41499">
        <ele>60.22</ele>
        <time>2022-03-23T13:33:37Z</time>
      </trkpt>
      <trkpt lat="49.95123" lon="2.41524">
        <ele>59.26</ele>
        <time>2022-03-23T13:33:55Z</time>
      </trkpt>
      <trkpt lat="49.95106" lon="2.41549">
        <ele>60.22</ele>
        <time>2022-03-23T13:34:12Z</time>
      </trkpt>
      <trkpt lat="49.95084" lon="2.41581">
        <ele>59.26</ele>
        <time>2022-03-23T13:34:33Z</time>
      </trkpt>
      <trkpt lat="49.9506" lon="2.41613">
        <ele>58.3</ele>
        <time>2022-03-23T13:34:55Z</time>
      </trkpt>
      <trkpt lat="49.95041" lon="2.41645">
        <ele>57.82</ele>
        <time>2022-03-23T13:35:15Z</time>
      </trkpt>
      <trkpt lat="49.95024" lon="2.41672">
        <ele>57.82</ele>
        <time>2022-03-23T13:35:32Z</time>
      </trkpt>
      <trkpt lat="49.95006" lon="2.41701">
        <ele>57.34</ele>
        <time>2022-03-23T13:35:50Z</time>
      </trkpt>
      <trkpt lat="49.94986" lon="2.41732">
        <ele>56.37</ele>
        <time>2022-03-23T13:36:10Z</time>
      </trkpt>
      <trkpt lat="49.94969" lon="2.41761">
        <ele>55.89</ele>
        <time>2022-03-23T13:36:28Z</time>
      </trkpt>
      <trkpt lat="49.94953" lon="2.41791">
        <ele>55.41</ele>
        <time>2022-03-23T13:36:46Z</time>
      </trkpt>
      <trkpt lat="49.94936" lon="2.41828">
        <ele>53.97</ele>
        <time>2022-03-23T13:37:06Z</time>
      </trkpt>
      <trkpt lat="49.94925" lon="2.41869">
        <ele>53.97</ele>
        <time>2022-03-23T13:37:27Z</time>
      </trkpt>
      <trkpt lat="49.94921" lon="2.41908">
        <ele>53.97</ele>
        <time>2022-03-23T13:37:46Z</time>
      </trkpt>
      <trkpt lat="49.94915" lon="2.41944">
        <ele>53.01</ele>
        <time>2022-03-23T13:38:03Z</time>
      </trkpt>
      <trkpt lat="49.94909" lon="2.41974">
        <ele>50.61</ele>
        <time>2022-03-23T13:38:18Z</time>
      </trkpt>
      <trkpt lat="49.94905" lon="2.41991">
        <ele>49.16</ele>
        <time>2022-03-23T13:38:28Z</time>
      </trkpt>
      <trkpt lat="49.94907" lon="2.41997">
        <ele>49.16</ele>
        <time>2022-03-23T13:38:32Z</time>
      </trkpt>
      <trkpt lat="49.94916" lon="2.42">
        <ele>50.13</ele>
        <time>2022-03-23T13:38:44Z</time>
      </trkpt>
      <trkpt lat="49.94919" lon="2.41997">
        <ele>49.65</ele>
        <time>2022-03-23T13:38:50Z</time>
      </trkpt>
      <trkpt lat="49.94934" lon="2.41984">
        <ele>50.61</ele>
        <time>2022-03-23T13:39:06Z</time>
      </trkpt>
      <trkpt lat="49.94948" lon="2.4197">
        <ele>51.09</ele>
        <time>2022-03-23T13:39:20Z</time>
      </trkpt>
      <trkpt lat="49.94963" lon="2.41956">
        <ele>51.09</ele>
        <time>2022-03-23T13:39:35Z</time>
      </trkpt>
      <trkpt lat="49.94976" lon="2.4194">
        <ele>52.53</ele>
        <time>2022-03-23T13:39:48Z</time>
      </trkpt>
      <trkpt lat="49.94992" lon="2.41927">
        <ele>53.49</ele>
        <time>2022-03-23T13:40:02Z</time>
      </trkpt>
      <trkpt lat="49.95011" lon="2.4191">
        <ele>54.93</ele>
        <time>2022-03-23T13:40:19Z</time>
      </trkpt>
      <trkpt lat="49.95028" lon="2.41895">
        <ele>55.41</ele>
        <time>2022-03-23T13:40:33Z</time>
      </trkpt>
      <trkpt lat="49.95042" lon="2.41882">
        <ele>55.41</ele>
        <time>2022-03-23T13:40:46Z</time>
      </trkpt>
      <trkpt lat="49.95058" lon="2.41894">
        <ele>55.41</ele>
        <time>2022-03-23T13:41:00Z</time>
      </trkpt>
      <trkpt lat="49.95071" lon="2.41915">
        <ele>54.45</ele>
        <time>2022-03-23T13:41:15Z</time>
      </trkpt>
      <trkpt lat="49.95085" lon="2.41939">
        <ele>54.93</ele>
        <time>2022-03-23T13:41:31Z</time>
      </trkpt>
      <trkpt lat="49.951" lon="2.41963">
        <ele>54.45</ele>
        <time>2022-03-23T13:41:47Z</time>
      </trkpt>
      <trkpt lat="49.95114" lon="2.41983">
        <ele>55.41</ele>
        <time>2022-03-23T13:42:01Z</time>
      </trkpt>
      <trkpt lat="49.95129" lon="2.42006">
        <ele>56.37</ele>
        <time>2022-03-23T13:42:17Z</time>
      </trkpt>
      <trkpt lat="49.95142" lon="2.42029">
        <ele>56.37</ele>
        <time>2022-03-23T13:42:32Z</time>
      </trkpt>
      <trkpt lat="49.95157" lon="2.42051">
        <ele>56.37</ele>
        <time>2022-03-23T13:42:48Z</time>
      </trkpt>
      <trkpt lat="49.95168" lon="2.42069">
        <ele>56.86</ele>
        <time>2022-03-23T13:43:01Z</time>
      </trkpt>
      <trkpt lat="49.95183" lon="2.42092">
        <ele>56.86</ele>
        <time>2022-03-23T13:43:17Z</time>
      </trkpt>
      <trkpt lat="49.95198" lon="2.42116">
        <ele>58.78</ele>
        <time>2022-03-23T13:43:33Z</time>
      </trkpt>
      <trkpt lat="49.95209" lon="2.42132">
        <ele>59.26</ele>
        <time>2022-03-23T13:43:45Z</time>
      </trkpt>
      <trkpt lat="49.95224" lon="2.42155">
        <ele>58.78</ele>
        <time>2022-03-23T13:44:01Z</time>
      </trkpt>
      <trkpt lat="49.95237" lon="2.42174">
        <ele>59.26</ele>
        <time>2022-03-23T13:44:15Z</time>
      </trkpt>
      <trkpt lat="49.95253" lon="2.42197">
        <ele>60.22</ele>
        <time>2022-03-23T13:44:31Z</time>
      </trkpt>
      <trkpt lat="49.9527" lon="2.42224">
        <ele>60.7</ele>
        <time>2022-03-23T13:44:49Z</time>
      </trkpt>
      <trkpt lat="49.95283" lon="2.42247">
        <ele>62.14</ele>
        <time>2022-03-23T13:45:04Z</time>
      </trkpt>
      <trkpt lat="49.95296" lon="2.42267">
        <ele>62.14</ele>
        <time>2022-03-23T13:45:18Z</time>
      </trkpt>
      <trkpt lat="49.95311" lon="2.4229">
        <ele>61.18</ele>
        <time>2022-03-23T13:45:34Z</time>
      </trkpt>
      <trkpt lat="49.95323" lon="2.42308">
        <ele>61.66</ele>
        <time>2022-03-23T13:45:47Z</time>
      </trkpt>
      <trkpt lat="49.95337" lon="2.4233">
        <ele>61.66</ele>
        <time>2022-03-23T13:46:02Z</time>
      </trkpt>
      <trkpt lat="49.9535" lon="2.42351">
        <ele>60.7</ele>
        <time>2022-03-23T13:46:16Z</time>
      </trkpt>
      <trkpt lat="49.95365" lon="2.42374">
        <ele>60.7</ele>
        <time>2022-03-23T13:46:32Z</time>
      </trkpt>
      <trkpt lat="49.95378" lon="2.42396">
        <ele>60.7</ele>
        <time>2022-03-23T13:46:47Z</time>
      </trkpt>
      <trkpt lat="49.95391" lon="2.42416">
        <ele>60.7</ele>
        <time>2022-03-23T13:47:01Z</time>
      </trkpt>
      <trkpt lat="49.95405" lon="2.42437">
        <ele>60.22</ele>
        <time>2022-03-23T13:47:16Z</time>
      </trkpt>
      <trkpt lat="49.9542" lon="2.42461">
        <ele>60.22</ele>
        <time>2022-03-23T13:47:32Z</time>
      </trkpt>
      <trkpt lat="49.95434" lon="2.42482">
        <ele>60.22</ele>
        <time>2022-03-23T13:47:46Z</time>
      </trkpt>
      <trkpt lat="49.95449" lon="2.42505">
        <ele>60.7</ele>
        <time>2022-03-23T13:48:02Z</time>
      </trkpt>
      <trkpt lat="49.95463" lon="2.42528">
        <ele>60.22</ele>
        <time>2022-03-23T13:48:17Z</time>
      </trkpt>
      <trkpt lat="49.95478" lon="2.42552">
        <ele>59.74</ele>
        <time>2022-03-23T13:48:33Z</time>
      </trkpt>
      <trkpt lat="49.95489" lon="2.42571">
        <ele>59.26</ele>
        <time>2022-03-23T13:48:46Z</time>
      </trkpt>
      <trkpt lat="49.95499" lon="2.42597">
        <ele>57.82</ele>
        <time>2022-03-23T13:49:02Z</time>
      </trkpt>
      <trkpt lat="49.9549" lon="2.42623">
        <ele>57.34</ele>
        <time>2022-03-23T13:49:16Z</time>
      </trkpt>
      <trkpt lat="49.95476" lon="2.42651">
        <ele>55.89</ele>
        <time>2022-03-23T13:49:33Z</time>
      </trkpt>
      <trkpt lat="49.95464" lon="2.42673">
        <ele>55.41</ele>
        <time>2022-03-23T13:49:47Z</time>
      </trkpt>
      <trkpt lat="49.95448" lon="2.42703">
        <ele>54.45</ele>
        <time>2022-03-23T13:50:06Z</time>
      </trkpt>
      <trkpt lat="49.95432" lon="2.42731">
        <ele>53.49</ele>
        <time>2022-03-23T13:50:24Z</time>
      </trkpt>
      <trkpt lat="49.9542" lon="2.42755">
        <ele>53.49</ele>
        <time>2022-03-23T13:50:39Z</time>
      </trkpt>
      <trkpt lat="49.95407" lon="2.42779">
        <ele>52.05</ele>
        <time>2022-03-23T13:50:54Z</time>
      </trkpt>
      <trkpt lat="49.95393" lon="2.42805">
        <ele>52.05</ele>
        <time>2022-03-23T13:51:10Z</time>
      </trkpt>
      <trkpt lat="49.95378" lon="2.42831">
        <ele>51.09</ele>
        <time>2022-03-23T13:51:26Z</time>
      </trkpt>
      <trkpt lat="49.95364" lon="2.42858">
        <ele>50.61</ele>
        <time>2022-03-23T13:51:43Z</time>
      </trkpt>
      <trkpt lat="49.9535" lon="2.42884">
        <ele>49.65</ele>
        <time>2022-03-23T13:51:59Z</time>
      </trkpt>
      <trkpt lat="49.95333" lon="2.42916">
        <ele>49.65</ele>
        <time>2022-03-23T13:52:19Z</time>
      </trkpt>
      <trkpt lat="49.95321" lon="2.4294">
        <ele>49.65</ele>
        <time>2022-03-23T13:52:34Z</time>
      </trkpt>
      <trkpt lat="49.95312" lon="2.42956">
        <ele>50.13</ele>
        <time>2022-03-23T13:52:48Z</time>
      </trkpt>
      <trkpt lat="49.9531" lon="2.42958">
        <ele>50.13</ele>
        <time>2022-03-23T13:52:59Z</time>
      </trkpt>
      <trkpt lat="49.9531" lon="2.42957">
        <ele>49.65</ele>
        <time>2022-03-23T13:53:12Z</time>
      </trkpt>
      <trkpt lat="49.9531" lon="2.42957">
        <ele>49.65</ele>
        <time>2022-03-23T13:53:36Z</time>
      </trkpt>
      <trkpt lat="49.95311" lon="2.42956">
        <ele>49.65</ele>
        <time>2022-03-23T13:54:04Z</time>
      </trkpt>
      <trkpt lat="49.95311" lon="2.42956">
        <ele>49.16</ele>
        <time>2022-03-23T13:54:34Z</time>
      </trkpt>
      <trkpt lat="49.9531" lon="2.42956">
        <ele>49.16</ele>
        <time>2022-03-23T13:54:54Z</time>
      </trkpt>
      <trkpt lat="49.95311" lon="2.42956">
        <ele>49.65</ele>
        <time>2022-03-23T13:55:24Z</time>
      </trkpt>
      <trkpt lat="49.9531" lon="2.42957">
        <ele>49.65</ele>
        <time>2022-03-23T13:55:37Z</time>
      </trkpt>
      <trkpt lat="49.9531" lon="2.42957">
        <ele>49.65</ele>
        <time>2022-03-23T13:55:53Z</time>
      </trkpt>
      <trkpt lat="49.9531" lon="2.42957">
        <ele>49.65</ele>
        <time>2022-03-23T13:56:06Z</time>
      </trkpt>
      <trkpt lat="49.9531" lon="2.42957">
        <ele>49.65</ele>
        <time>2022-03-23T13:56:14Z</time>
      </trkpt>
      <trkpt lat="49.9531" lon="2.42957">
        <ele>49.65</ele>
        <time>2022-03-23T13:56:33Z</time>
      </trkpt>
      <trkpt lat="49.9531" lon="2.42957">
        <ele>49.16</ele>
        <time>2022-03-23T13:56:47Z</time>
      </trkpt>
      <trkpt lat="49.9531" lon="2.42961">
        <ele>49.65</ele>
        <time>2022-03-23T13:56:58Z</time>
      </trkpt>
      <trkpt lat="49.95319" lon="2.42979">
        <ele>49.65</ele>
        <time>2022-03-23T13:57:11Z</time>
      </trkpt>
      <trkpt lat="49.95337" lon="2.4298">
        <ele>50.61</ele>
        <time>2022-03-23T13:57:25Z</time>
      </trkpt>
      <trkpt lat="49.95361" lon="2.4298">
        <ele>51.09</ele>
        <time>2022-03-23T13:57:43Z</time>
      </trkpt>
      <trkpt lat="49.95381" lon="2.42981">
        <ele>51.09</ele>
        <time>2022-03-23T13:57:58Z</time>
      </trkpt>
      <trkpt lat="49.95398" lon="2.42984">
        <ele>50.61</ele>
        <time>2022-03-23T13:58:12Z</time>
      </trkpt>
      <trkpt lat="49.95415" lon="2.4299">
        <ele>49.65</ele>
        <time>2022-03-23T13:58:26Z</time>
      </trkpt>
      <trkpt lat="49.95433" lon="2.43003">
        <ele>49.16</ele>
        <time>2022-03-23T13:58:41Z</time>
      </trkpt>
      <trkpt lat="49.95449" lon="2.43018">
        <ele>48.68</ele>
        <time>2022-03-23T13:58:55Z</time>
      </trkpt>
      <trkpt lat="49.95469" lon="2.43036">
        <ele>47.72</ele>
        <time>2022-03-23T13:59:12Z</time>
      </trkpt>
      <trkpt lat="49.95492" lon="2.43056">
        <ele>46.76</ele>
        <time>2022-03-23T13:59:31Z</time>
      </trkpt>
      <trkpt lat="49.95512" lon="2.43074">
        <ele>47.24</ele>
        <time>2022-03-23T13:59:48Z</time>
      </trkpt>
      <trkpt lat="49.95528" lon="2.43087">
        <ele>47.24</ele>
        <time>2022-03-23T14:00:02Z</time>
      </trkpt>
      <trkpt lat="49.95546" lon="2.43102">
        <ele>47.72</ele>
        <time>2022-03-23T14:00:17Z</time>
      </trkpt>
      <trkpt lat="49.95564" lon="2.43116">
        <ele>48.2</ele>
        <time>2022-03-23T14:00:32Z</time>
      </trkpt>
      <trkpt lat="49.95586" lon="2.43133">
        <ele>48.68</ele>
        <time>2022-03-23T14:00:49Z</time>
      </trkpt>
      <trkpt lat="49.95603" lon="2.43151">
        <ele>49.65</ele>
        <time>2022-03-23T14:01:04Z</time>
      </trkpt>
      <trkpt lat="49.9562" lon="2.43165">
        <ele>49.16</ele>
        <time>2022-03-23T14:01:20Z</time>
      </trkpt>
      <trkpt lat="49.95637" lon="2.43183">
        <ele>48.68</ele>
        <time>2022-03-23T14:01:36Z</time>
      </trkpt>
      <trkpt lat="49.95655" lon="2.43201">
        <ele>47.72</ele>
        <time>2022-03-23T14:01:54Z</time>
      </trkpt>
      <trkpt lat="49.9567" lon="2.43211">
        <ele>47.24</ele>
        <time>2022-03-23T14:02:07Z</time>
      </trkpt>
      <trkpt lat="49.95687" lon="2.43218">
        <ele>46.28</ele>
        <time>2022-03-23T14:02:21Z</time>
      </trkpt>
      <trkpt lat="49.95708" lon="2.43226">
        <ele>45.8</ele>
        <time>2022-03-23T14:02:37Z</time>
      </trkpt>
      <trkpt lat="49.95733" lon="2.43234">
        <ele>45.8</ele>
        <time>2022-03-23T14:02:56Z</time>
      </trkpt>
      <trkpt lat="49.95753" lon="2.43241">
        <ele>45.8</ele>
        <time>2022-03-23T14:03:11Z</time>
      </trkpt>
      <trkpt lat="49.95772" lon="2.43248">
        <ele>44.84</ele>
        <time>2022-03-23T14:03:26Z</time>
      </trkpt>
      <trkpt lat="49.95789" lon="2.43262">
        <ele>44.36</ele>
        <time>2022-03-23T14:03:42Z</time>
      </trkpt>
      <trkpt lat="49.95792" lon="2.43291">
        <ele>43.88</ele>
        <time>2022-03-23T14:03:56Z</time>
      </trkpt>
      <trkpt lat="49.95794" lon="2.43322">
        <ele>42.44</ele>
        <time>2022-03-23T14:04:11Z</time>
      </trkpt>
      <trkpt lat="49.95793" lon="2.43351">
        <ele>40.51</ele>
        <time>2022-03-23T14:04:25Z</time>
      </trkpt>
      <trkpt lat="49.95792" lon="2.43358">
        <ele>39.07</ele>
        <time>2022-03-23T14:04:29Z</time>
      </trkpt>
      <trkpt lat="49.95792" lon="2.43383">
        <ele>36.67</ele>
        <time>2022-03-23T14:04:43Z</time>
      </trkpt>
      <trkpt lat="49.95792" lon="2.43403">
        <ele>34.74</ele>
        <time>2022-03-23T14:04:54Z</time>
      </trkpt>
      <trkpt lat="49.95793" lon="2.43423">
        <ele>32.34</ele>
        <time>2022-03-23T14:05:05Z</time>
      </trkpt>
      <trkpt lat="49.95797" lon="2.43443">
        <ele>31.86</ele>
        <time>2022-03-23T14:05:16Z</time>
      </trkpt>
      <trkpt lat="49.95806" lon="2.43467">
        <ele>32.34</ele>
        <time>2022-03-23T14:05:29Z</time>
      </trkpt>
      <trkpt lat="49.95814" lon="2.43486">
        <ele>32.34</ele>
        <time>2022-03-23T14:05:39Z</time>
      </trkpt>
      <trkpt lat="49.95821" lon="2.43508">
        <ele>32.34</ele>
        <time>2022-03-23T14:05:50Z</time>
      </trkpt>
      <trkpt lat="49.95827" lon="2.43527">
        <ele>33.3</ele>
        <time>2022-03-23T14:06:01Z</time>
      </trkpt>
      <trkpt lat="49.95834" lon="2.43542">
        <ele>35.23</ele>
        <time>2022-03-23T14:06:10Z</time>
      </trkpt>
      <trkpt lat="49.95843" lon="2.43562">
        <ele>35.23</ele>
        <time>2022-03-23T14:06:21Z</time>
      </trkpt>
      <trkpt lat="49.95852" lon="2.43576">
        <ele>33.78</ele>
        <time>2022-03-23T14:06:31Z</time>
      </trkpt>
      <trkpt lat="49.95864" lon="2.43594">
        <ele>32.34</ele>
        <time>2022-03-23T14:06:44Z</time>
      </trkpt>
      <trkpt lat="49.95876" lon="2.43609">
        <ele>31.38</ele>
        <time>2022-03-23T14:06:55Z</time>
      </trkpt>
      <trkpt lat="49.95891" lon="2.43625">
        <ele>30.9</ele>
        <time>2022-03-23T14:07:08Z</time>
      </trkpt>
      <trkpt lat="49.95892" lon="2.43626">
        <ele>30.9</ele>
        <time>2022-03-23T14:07:09Z</time>
      </trkpt>
      <trkpt lat="49.9591" lon="2.43641">
        <ele>31.86</ele>
        <time>2022-03-23T14:07:23Z</time>
      </trkpt>
      <trkpt lat="49.95925" lon="2.43656">
        <ele>31.38</ele>
        <time>2022-03-23T14:07:36Z</time>
      </trkpt>
      <trkpt lat="49.95942" lon="2.43671">
        <ele>32.82</ele>
        <time>2022-03-23T14:07:50Z</time>
      </trkpt>
      <trkpt lat="49.95956" lon="2.43684">
        <ele>33.3</ele>
        <time>2022-03-23T14:08:02Z</time>
      </trkpt>
      <trkpt lat="49.95972" lon="2.43696">
        <ele>34.26</ele>
        <time>2022-03-23T14:08:15Z</time>
      </trkpt>
      <trkpt lat="49.9599" lon="2.43702">
        <ele>35.23</ele>
        <time>2022-03-23T14:08:28Z</time>
      </trkpt>
      <trkpt lat="49.96003" lon="2.43701">
        <ele>35.71</ele>
        <time>2022-03-23T14:08:37Z</time>
      </trkpt>
      <trkpt lat="49.96019" lon="2.43695">
        <ele>36.67</ele>
        <time>2022-03-23T14:08:48Z</time>
      </trkpt>
      <trkpt lat="49.96034" lon="2.4369">
        <ele>38.11</ele>
        <time>2022-03-23T14:09:00Z</time>
      </trkpt>
      <trkpt lat="49.96049" lon="2.43684">
        <ele>38.59</ele>
        <time>2022-03-23T14:09:11Z</time>
      </trkpt>
      <trkpt lat="49.96063" lon="2.43679">
        <ele>38.59</ele>
        <time>2022-03-23T14:09:24Z</time>
      </trkpt>
      <trkpt lat="49.96078" lon="2.43676">
        <ele>35.71</ele>
        <time>2022-03-23T14:09:37Z</time>
      </trkpt>
      <trkpt lat="49.96097" lon="2.43674">
        <ele>38.11</ele>
        <time>2022-03-23T14:09:50Z</time>
      </trkpt>
      <trkpt lat="49.96108" lon="2.43673">
        <ele>36.67</ele>
        <time>2022-03-23T14:10:00Z</time>
      </trkpt>
      <trkpt lat="49.96124" lon="2.43672">
        <ele>37.15</ele>
        <time>2022-03-23T14:10:13Z</time>
      </trkpt>
      <trkpt lat="49.9614" lon="2.43672">
        <ele>37.15</ele>
        <time>2022-03-23T14:10:26Z</time>
      </trkpt>
      <trkpt lat="49.96158" lon="2.4367">
        <ele>37.15</ele>
        <time>2022-03-23T14:10:39Z</time>
      </trkpt>
      <trkpt lat="49.96165" lon="2.43668">
        <ele>39.07</ele>
        <time>2022-03-23T14:10:51Z</time>
      </trkpt>
      <trkpt lat="49.96167" lon="2.43668">
        <ele>40.03</ele>
        <time>2022-03-23T14:11:06Z</time>
      </trkpt>
      <trkpt lat="49.9617" lon="2.43671">
        <ele>42.44</ele>
        <time>2022-03-23T14:11:23Z</time>
      </trkpt>
      <trkpt lat="49.9617" lon="2.43673">
        <ele>42.44</ele>
        <time>2022-03-23T14:11:44Z</time>
      </trkpt>
      <trkpt lat="49.9617" lon="2.43673">
        <ele>42.92</ele>
        <time>2022-03-23T14:11:59Z</time>
      </trkpt>
      <trkpt lat="49.96171" lon="2.43674">
        <ele>44.36</ele>
        <time>2022-03-23T14:12:25Z</time>
      </trkpt>
      <trkpt lat="49.96171" lon="2.43674">
        <ele>44.84</ele>
        <time>2022-03-23T14:12:36Z</time>
      </trkpt>
      <trkpt lat="49.96171" lon="2.43673">
        <ele>44.84</ele>
        <time>2022-03-23T14:12:56Z</time>
      </trkpt>
      <trkpt lat="49.96171" lon="2.43673">
        <ele>45.32</ele>
        <time>2022-03-23T14:13:09Z</time>
      </trkpt>
      <trkpt lat="49.96172" lon="2.43673">
        <ele>45.8</ele>
        <time>2022-03-23T14:13:25Z</time>
      </trkpt>
      <trkpt lat="49.96172" lon="2.43674">
        <ele>45.32</ele>
        <time>2022-03-23T14:13:41Z</time>
      </trkpt>
      <trkpt lat="49.96173" lon="2.43674">
        <ele>45.8</ele>
        <time>2022-03-23T14:13:54Z</time>
      </trkpt>
      <trkpt lat="49.96172" lon="2.43674">
        <ele>45.32</ele>
        <time>2022-03-23T14:14:19Z</time>
      </trkpt>
      <trkpt lat="49.96172" lon="2.43676">
        <ele>44.36</ele>
        <time>2022-03-23T14:14:46Z</time>
      </trkpt>
      <trkpt lat="49.96173" lon="2.43675">
        <ele>44.36</ele>
        <time>2022-03-23T14:15:00Z</time>
      </trkpt>
      <trkpt lat="49.96172" lon="2.43673">
        <ele>44.36</ele>
        <time>2022-03-23T14:15:10Z</time>
      </trkpt>
      <trkpt lat="49.96171" lon="2.43669">
        <ele>43.4</ele>
        <time>2022-03-23T14:15:25Z</time>
      </trkpt>
      <trkpt lat="49.96171" lon="2.4367">
        <ele>42.44</ele>
        <time>2022-03-23T14:15:46Z</time>
      </trkpt>
      <trkpt lat="49.96171" lon="2.4367">
        <ele>42.44</ele>
        <time>2022-03-23T14:15:59Z</time>
      </trkpt>
      <trkpt lat="49.96171" lon="2.43669">
        <ele>42.44</ele>
        <time>2022-03-23T14:16:14Z</time>
      </trkpt>
      <trkpt lat="49.96171" lon="2.4367">
        <ele>42.92</ele>
        <time>2022-03-23T14:16:26Z</time>
      </trkpt>
      <trkpt lat="49.96171" lon="2.4367">
        <ele>43.4</ele>
        <time>2022-03-23T14:16:49Z</time>
      </trkpt>
      <trkpt lat="49.96172" lon="2.43668">
        <ele>44.84</ele>
        <time>2022-03-23T14:17:08Z</time>
      </trkpt>
      <trkpt lat="49.96172" lon="2.43668">
        <ele>45.32</ele>
        <time>2022-03-23T14:17:28Z</time>
      </trkpt>
      <trkpt lat="49.96173" lon="2.43669">
        <ele>46.28</ele>
        <time>2022-03-23T14:17:41Z</time>
      </trkpt>
      <trkpt lat="49.96173" lon="2.43668">
        <ele>45.8</ele>
        <time>2022-03-23T14:18:02Z</time>
      </trkpt>
      <trkpt lat="49.96173" lon="2.43667">
        <ele>45.8</ele>
        <time>2022-03-23T14:18:13Z</time>
      </trkpt>
      <trkpt lat="49.96175" lon="2.43667">
        <ele>45.8</ele>
        <time>2022-03-23T14:18:29Z</time>
      </trkpt>
      <trkpt lat="49.96185" lon="2.43667">
        <ele>42.44</ele>
        <time>2022-03-23T14:18:41Z</time>
      </trkpt>
      <trkpt lat="49.96191" lon="2.43677">
        <ele>38.11</ele>
        <time>2022-03-23T14:18:56Z</time>
      </trkpt>
      <trkpt lat="49.96197" lon="2.43693">
        <ele>34.74</ele>
        <time>2022-03-23T14:19:09Z</time>
      </trkpt>
      <trkpt lat="49.96199" lon="2.43698">
        <ele>39.07</ele>
        <time>2022-03-23T14:19:24Z</time>
      </trkpt>
      <trkpt lat="49.96199" lon="2.43703">
        <ele>41.47</ele>
        <time>2022-03-23T14:19:44Z</time>
      </trkpt>
      <trkpt lat="49.96199" lon="2.43704">
        <ele>41.47</ele>
        <time>2022-03-23T14:20:00Z</time>
      </trkpt>
      <trkpt lat="49.96207" lon="2.43712">
        <ele>40.99</ele>
        <time>2022-03-23T14:20:12Z</time>
      </trkpt>
      <trkpt lat="49.9622" lon="2.4372">
        <ele>41.95</ele>
        <time>2022-03-23T14:20:23Z</time>
      </trkpt>
      <trkpt lat="49.96226" lon="2.43725">
        <ele>41.47</ele>
        <time>2022-03-23T14:20:33Z</time>
      </trkpt>
      <trkpt lat="49.96229" lon="2.43727">
        <ele>41.95</ele>
        <time>2022-03-23T14:20:44Z</time>
      </trkpt>
      <trkpt lat="49.96232" lon="2.43729">
        <ele>44.36</ele>
        <time>2022-03-23T14:21:05Z</time>
      </trkpt>
      <trkpt lat="49.96235" lon="2.4373">
        <ele>44.36</ele>
        <time>2022-03-23T14:21:14Z</time>
      </trkpt>
      <trkpt lat="49.96248" lon="2.43732">
        <ele>44.84</ele>
        <time>2022-03-23T14:21:26Z</time>
      </trkpt>
      <trkpt lat="49.96258" lon="2.43737">
        <ele>44.84</ele>
        <time>2022-03-23T14:21:34Z</time>
      </trkpt>
      <trkpt lat="49.96262" lon="2.4374">
        <ele>44.84</ele>
        <time>2022-03-23T14:21:37Z</time>
      </trkpt>
      <trkpt lat="49.96275" lon="2.43748">
        <ele>42.44</ele>
        <time>2022-03-23T14:21:47Z</time>
      </trkpt>
      <trkpt lat="49.96286" lon="2.43762">
        <ele>38.59</ele>
        <time>2022-03-23T14:21:58Z</time>
      </trkpt>
      <trkpt lat="49.96297" lon="2.4377">
        <ele>35.71</ele>
        <time>2022-03-23T14:22:08Z</time>
      </trkpt>
      <trkpt lat="49.96315" lon="2.43783">
        <ele>36.67</ele>
        <time>2022-03-23T14:22:19Z</time>
      </trkpt>
      <trkpt lat="49.96316" lon="2.43784">
        <ele>36.67</ele>
        <time>2022-03-23T14:22:20Z</time>
      </trkpt>
      <trkpt lat="49.96327" lon="2.43798">
        <ele>37.15</ele>
        <time>2022-03-23T14:22:32Z</time>
      </trkpt>
      <trkpt lat="49.96338" lon="2.43805">
        <ele>38.11</ele>
        <time>2022-03-23T14:22:43Z</time>
      </trkpt>
      <trkpt lat="49.96345" lon="2.43811">
        <ele>38.11</ele>
        <time>2022-03-23T14:22:54Z</time>
      </trkpt>
      <trkpt lat="49.96348" lon="2.43819">
        <ele>38.59</ele>
        <time>2022-03-23T14:23:04Z</time>
      </trkpt>
      <trkpt lat="49.96348" lon="2.43822">
        <ele>41.47</ele>
        <time>2022-03-23T14:23:15Z</time>
      </trkpt>
      <trkpt lat="49.96347" lon="2.43824">
        <ele>44.84</ele>
        <time>2022-03-23T14:23:33Z</time>
      </trkpt>
      <trkpt lat="49.96348" lon="2.4383">
        <ele>46.28</ele>
        <time>2022-03-23T14:23:45Z</time>
      </trkpt>
      <trkpt lat="49.96349" lon="2.43847">
        <ele>44.36</ele>
        <time>2022-03-23T14:23:53Z</time>
      </trkpt>
      <trkpt lat="49.96356" lon="2.43882">
        <ele>43.4</ele>
        <time>2022-03-23T14:24:07Z</time>
      </trkpt>
      <trkpt lat="49.96361" lon="2.43913">
        <ele>43.88</ele>
        <time>2022-03-23T14:24:20Z</time>
      </trkpt>
      <trkpt lat="49.96364" lon="2.43925">
        <ele>44.36</ele>
        <time>2022-03-23T14:24:26Z</time>
      </trkpt>
      <trkpt lat="49.96365" lon="2.43932">
        <ele>44.36</ele>
        <time>2022-03-23T14:24:30Z</time>
      </trkpt>
      <trkpt lat="49.96373" lon="2.43954">
        <ele>45.32</ele>
        <time>2022-03-23T14:24:43Z</time>
      </trkpt>
      <trkpt lat="49.96374" lon="2.43961">
        <ele>45.32</ele>
        <time>2022-03-23T14:24:47Z</time>
      </trkpt>
      <trkpt lat="49.96378" lon="2.43982">
        <ele>46.28</ele>
        <time>2022-03-23T14:25:00Z</time>
      </trkpt>
      <trkpt lat="49.96382" lon="2.44003">
        <ele>44.84</ele>
        <time>2022-03-23T14:25:12Z</time>
      </trkpt>
      <trkpt lat="49.96386" lon="2.44011">
        <ele>44.36</ele>
        <time>2022-03-23T14:25:18Z</time>
      </trkpt>
      <trkpt lat="49.96398" lon="2.44016">
        <ele>43.4</ele>
        <time>2022-03-23T14:25:31Z</time>
      </trkpt>
      <trkpt lat="49.96399" lon="2.44016">
        <ele>43.4</ele>
        <time>2022-03-23T14:25:32Z</time>
      </trkpt>
      <trkpt lat="49.96408" lon="2.44013">
        <ele>43.88</ele>
        <time>2022-03-23T14:25:41Z</time>
      </trkpt>
      <trkpt lat="49.96419" lon="2.44009">
        <ele>44.36</ele>
        <time>2022-03-23T14:25:53Z</time>
      </trkpt>
      <trkpt lat="49.96433" lon="2.44003">
        <ele>45.8</ele>
        <time>2022-03-23T14:26:08Z</time>
      </trkpt>
      <trkpt lat="49.96443" lon="2.43999">
        <ele>46.76</ele>
        <time>2022-03-23T14:26:20Z</time>
      </trkpt>
      <trkpt lat="49.96454" lon="2.43995">
        <ele>47.72</ele>
        <time>2022-03-23T14:26:33Z</time>
      </trkpt>
      <trkpt lat="49.96462" lon="2.43992">
        <ele>49.16</ele>
        <time>2022-03-23T14:26:44Z</time>
      </trkpt>
      <trkpt lat="49.96472" lon="2.43991">
        <ele>49.16</ele>
        <time>2022-03-23T14:26:55Z</time>
      </trkpt>
      <trkpt lat="49.96485" lon="2.43986">
        <ele>48.2</ele>
        <time>2022-03-23T14:27:10Z</time>
      </trkpt>
      <trkpt lat="49.96488" lon="2.43984">
        <ele>49.16</ele>
        <time>2022-03-23T14:27:19Z</time>
      </trkpt>
      <trkpt lat="49.9649" lon="2.43983">
        <ele>51.57</ele>
        <time>2022-03-23T14:27:31Z</time>
      </trkpt>
      <trkpt lat="49.96491" lon="2.43982">
        <ele>52.53</ele>
        <time>2022-03-23T14:27:43Z</time>
      </trkpt>
      <trkpt lat="49.96492" lon="2.43982">
        <ele>53.01</ele>
        <time>2022-03-23T14:28:05Z</time>
      </trkpt>
      <trkpt lat="49.96493" lon="2.43982">
        <ele>53.01</ele>
        <time>2022-03-23T14:28:28Z</time>
      </trkpt>
      <trkpt lat="49.96493" lon="2.43982">
        <ele>53.01</ele>
        <time>2022-03-23T14:28:47Z</time>
      </trkpt>
      <trkpt lat="49.96494" lon="2.43982">
        <ele>53.49</ele>
        <time>2022-03-23T14:29:01Z</time>
      </trkpt>
      <trkpt lat="49.96495" lon="2.43979">
        <ele>53.49</ele>
        <time>2022-03-23T14:29:05Z</time>
      </trkpt>
      <trkpt lat="49.96497" lon="2.43971">
        <ele>53.01</ele>
        <time>2022-03-23T14:29:10Z</time>
      </trkpt>
      <trkpt lat="49.96495" lon="2.43951">
        <ele>51.57</ele>
        <time>2022-03-23T14:29:22Z</time>
      </trkpt>
      <trkpt lat="49.96494" lon="2.43945">
        <ele>51.09</ele>
        <time>2022-03-23T14:29:26Z</time>
      </trkpt>
      <trkpt lat="49.96493" lon="2.43918">
        <ele>51.57</ele>
        <time>2022-03-23T14:29:41Z</time>
      </trkpt>
      <trkpt lat="49.96491" lon="2.4389">
        <ele>53.49</ele>
        <time>2022-03-23T14:29:57Z</time>
      </trkpt>
      <trkpt lat="49.96489" lon="2.43868">
        <ele>53.49</ele>
        <time>2022-03-23T14:30:10Z</time>
      </trkpt>
      <trkpt lat="49.96488" lon="2.43839">
        <ele>53.49</ele>
        <time>2022-03-23T14:30:25Z</time>
      </trkpt>
      <trkpt lat="49.96487" lon="2.43834">
        <ele>53.49</ele>
        <time>2022-03-23T14:30:28Z</time>
      </trkpt>
      <trkpt lat="49.96485" lon="2.43812">
        <ele>53.01</ele>
        <time>2022-03-23T14:30:41Z</time>
      </trkpt>
      <trkpt lat="49.96481" lon="2.43785">
        <ele>53.97</ele>
        <time>2022-03-23T14:30:55Z</time>
      </trkpt>
      <trkpt lat="49.96481" lon="2.43773">
        <ele>53.49</ele>
        <time>2022-03-23T14:31:01Z</time>
      </trkpt>
      <trkpt lat="49.96479" lon="2.43751">
        <ele>56.37</ele>
        <time>2022-03-23T14:31:14Z</time>
      </trkpt>
      <trkpt lat="49.96477" lon="2.43735">
        <ele>53.97</ele>
        <time>2022-03-23T14:31:25Z</time>
      </trkpt>
      <trkpt lat="49.96476" lon="2.43723">
        <ele>58.3</ele>
        <time>2022-03-23T14:31:36Z</time>
      </trkpt>
      <trkpt lat="49.96476" lon="2.43717">
        <ele>58.3</ele>
        <time>2022-03-23T14:31:39Z</time>
      </trkpt>
      <trkpt lat="49.9648" lon="2.43694">
        <ele>59.74</ele>
        <time>2022-03-23T14:31:53Z</time>
      </trkpt>
      <trkpt lat="49.96481" lon="2.43691">
        <ele>60.7</ele>
        <time>2022-03-23T14:32:04Z</time>
      </trkpt>
      <trkpt lat="49.96482" lon="2.43689">
        <ele>61.18</ele>
        <time>2022-03-23T14:32:21Z</time>
      </trkpt>
      <trkpt lat="49.96482" lon="2.43688">
        <ele>61.66</ele>
        <time>2022-03-23T14:32:40Z</time>
      </trkpt>
      <trkpt lat="49.96482" lon="2.43688">
        <ele>62.62</ele>
        <time>2022-03-23T14:32:59Z</time>
      </trkpt>
      <trkpt lat="49.96483" lon="2.43689">
        <ele>62.62</ele>
        <time>2022-03-23T14:33:23Z</time>
      </trkpt>
      <trkpt lat="49.96483" lon="2.43689">
        <ele>62.14</ele>
        <time>2022-03-23T14:33:43Z</time>
      </trkpt>
      <trkpt lat="49.96486" lon="2.43689">
        <ele>62.62</ele>
        <time>2022-03-23T14:33:50Z</time>
      </trkpt>
      <trkpt lat="49.96503" lon="2.43685">
        <ele>61.18</ele>
        <time>2022-03-23T14:34:04Z</time>
      </trkpt>
      <trkpt lat="49.96517" lon="2.43682">
        <ele>58.78</ele>
        <time>2022-03-23T14:34:18Z</time>
      </trkpt>
      <trkpt lat="49.96536" lon="2.43678">
        <ele>57.34</ele>
        <time>2022-03-23T14:34:33Z</time>
      </trkpt>
      <trkpt lat="49.96555" lon="2.43677">
        <ele>56.37</ele>
        <time>2022-03-23T14:34:48Z</time>
      </trkpt>
      <trkpt lat="49.9657" lon="2.43676">
        <ele>55.41</ele>
        <time>2022-03-23T14:35:01Z</time>
      </trkpt>
      <trkpt lat="49.96583" lon="2.4367">
        <ele>53.97</ele>
        <time>2022-03-23T14:35:12Z</time>
      </trkpt>
      <trkpt lat="49.96589" lon="2.43663">
        <ele>53.01</ele>
        <time>2022-03-23T14:35:18Z</time>
      </trkpt>
      <trkpt lat="49.96592" lon="2.43655">
        <ele>52.05</ele>
        <time>2022-03-23T14:35:23Z</time>
      </trkpt>
      <trkpt lat="49.96589" lon="2.43632">
        <ele>46.28</ele>
        <time>2022-03-23T14:35:37Z</time>
      </trkpt>
      <trkpt lat="49.96587" lon="2.43609">
        <ele>41.95</ele>
        <time>2022-03-23T14:35:50Z</time>
      </trkpt>
      <trkpt lat="49.96586" lon="2.43588">
        <ele>39.55</ele>
        <time>2022-03-23T14:36:01Z</time>
      </trkpt>
      <trkpt lat="49.96584" lon="2.43571">
        <ele>39.07</ele>
        <time>2022-03-23T14:36:10Z</time>
      </trkpt>
      <trkpt lat="49.96584" lon="2.43568">
        <ele>38.59</ele>
        <time>2022-03-23T14:36:12Z</time>
      </trkpt>
      <trkpt lat="49.96583" lon="2.43541">
        <ele>38.11</ele>
        <time>2022-03-23T14:36:25Z</time>
      </trkpt>
      <trkpt lat="49.96584" lon="2.43518">
        <ele>38.11</ele>
        <time>2022-03-23T14:36:37Z</time>
      </trkpt>
      <trkpt lat="49.96589" lon="2.43487">
        <ele>38.11</ele>
        <time>2022-03-23T14:36:51Z</time>
      </trkpt>
      <trkpt lat="49.96593" lon="2.43459">
        <ele>38.11</ele>
        <time>2022-03-23T14:37:04Z</time>
      </trkpt>
      <trkpt lat="49.96598" lon="2.43436">
        <ele>38.11</ele>
        <time>2022-03-23T14:37:16Z</time>
      </trkpt>
      <trkpt lat="49.96607" lon="2.43406">
        <ele>39.55</ele>
        <time>2022-03-23T14:37:31Z</time>
      </trkpt>
      <trkpt lat="49.96616" lon="2.43386">
        <ele>39.55</ele>
        <time>2022-03-23T14:37:43Z</time>
      </trkpt>
      <trkpt lat="49.96631" lon="2.43364">
        <ele>40.03</ele>
        <time>2022-03-23T14:37:59Z</time>
      </trkpt>
      <trkpt lat="49.96646" lon="2.43345">
        <ele>43.88</ele>
        <time>2022-03-23T14:38:12Z</time>
      </trkpt>
      <trkpt lat="49.96663" lon="2.43328">
        <ele>44.84</ele>
        <time>2022-03-23T14:38:27Z</time>
      </trkpt>
      <trkpt lat="49.96678" lon="2.43316">
        <ele>45.32</ele>
        <time>2022-03-23T14:38:40Z</time>
      </trkpt>
      <trkpt lat="49.96695" lon="2.43305">
        <ele>44.84</ele>
        <time>2022-03-23T14:38:54Z</time>
      </trkpt>
      <trkpt lat="49.96712" lon="2.43294">
        <ele>43.88</ele>
        <time>2022-03-23T14:39:09Z</time>
      </trkpt>
      <trkpt lat="49.96727" lon="2.43279">
        <ele>43.4</ele>
        <time>2022-03-23T14:39:23Z</time>
      </trkpt>
      <trkpt lat="49.96739" lon="2.43257">
        <ele>44.36</ele>
        <time>2022-03-23T14:39:37Z</time>
      </trkpt>
      <trkpt lat="49.96745" lon="2.43234">
        <ele>45.8</ele>
        <time>2022-03-23T14:39:50Z</time>
      </trkpt>
      <trkpt lat="49.96739" lon="2.43204">
        <ele>45.32</ele>
        <time>2022-03-23T14:40:04Z</time>
      </trkpt>
      <trkpt lat="49.96731" lon="2.43171">
        <ele>46.76</ele>
        <time>2022-03-23T14:40:21Z</time>
      </trkpt>
      <trkpt lat="49.96725" lon="2.43142">
        <ele>47.24</ele>
        <time>2022-03-23T14:40:35Z</time>
      </trkpt>
      <trkpt lat="49.96719" lon="2.43112">
        <ele>47.24</ele>
        <time>2022-03-23T14:40:50Z</time>
      </trkpt>
      <trkpt lat="49.96714" lon="2.43088">
        <ele>47.72</ele>
        <time>2022-03-23T14:41:03Z</time>
      </trkpt>
      <trkpt lat="49.96707" lon="2.43057">
        <ele>47.72</ele>
        <time>2022-03-23T14:41:19Z</time>
      </trkpt>
      <trkpt lat="49.967" lon="2.43021">
        <ele>48.68</ele>
        <time>2022-03-23T14:41:38Z</time>
      </trkpt>
      <trkpt lat="49.96692" lon="2.42988">
        <ele>49.16</ele>
        <time>2022-03-23T14:41:56Z</time>
      </trkpt>
      <trkpt lat="49.96686" lon="2.42958">
        <ele>49.16</ele>
        <time>2022-03-23T14:42:12Z</time>
      </trkpt>
      <trkpt lat="49.96681" lon="2.42933">
        <ele>49.65</ele>
        <time>2022-03-23T14:42:26Z</time>
      </trkpt>
      <trkpt lat="49.96678" lon="2.42908">
        <ele>49.65</ele>
        <time>2022-03-23T14:42:39Z</time>
      </trkpt>
      <trkpt lat="49.96675" lon="2.42883">
        <ele>49.65</ele>
        <time>2022-03-23T14:42:52Z</time>
      </trkpt>
      <trkpt lat="49.96671" lon="2.42856">
        <ele>50.61</ele>
        <time>2022-03-23T14:43:06Z</time>
      </trkpt>
      <trkpt lat="49.96669" lon="2.42828">
        <ele>52.05</ele>
        <time>2022-03-23T14:43:21Z</time>
      </trkpt>
      <trkpt lat="49.96666" lon="2.42802">
        <ele>53.01</ele>
        <time>2022-03-23T14:43:35Z</time>
      </trkpt>
      <trkpt lat="49.96663" lon="2.42778">
        <ele>54.93</ele>
        <time>2022-03-23T14:43:48Z</time>
      </trkpt>
      <trkpt lat="49.96661" lon="2.42756">
        <ele>56.37</ele>
        <time>2022-03-23T14:44:01Z</time>
      </trkpt>
      <trkpt lat="49.96659" lon="2.42735">
        <ele>57.82</ele>
        <time>2022-03-23T14:44:13Z</time>
      </trkpt>
      <trkpt lat="49.96656" lon="2.42711">
        <ele>58.78</ele>
        <time>2022-03-23T14:44:27Z</time>
      </trkpt>
      <trkpt lat="49.96654" lon="2.42685">
        <ele>59.74</ele>
        <time>2022-03-23T14:44:42Z</time>
      </trkpt>
      <trkpt lat="49.96651" lon="2.42658">
        <ele>60.7</ele>
        <time>2022-03-23T14:44:57Z</time>
      </trkpt>
      <trkpt lat="49.96647" lon="2.42631">
        <ele>60.7</ele>
        <time>2022-03-23T14:45:13Z</time>
      </trkpt>
      <trkpt lat="49.96645" lon="2.4261">
        <ele>61.66</ele>
        <time>2022-03-23T14:45:26Z</time>
      </trkpt>
      <trkpt lat="49.96642" lon="2.42588">
        <ele>63.1</ele>
        <time>2022-03-23T14:45:39Z</time>
      </trkpt>
      <trkpt lat="49.96641" lon="2.42585">
        <ele>63.58</ele>
        <time>2022-03-23T14:45:41Z</time>
      </trkpt>
      <trkpt lat="49.96638" lon="2.42563">
        <ele>64.07</ele>
        <time>2022-03-23T14:45:54Z</time>
      </trkpt>
      <trkpt lat="49.96635" lon="2.42537">
        <ele>65.03</ele>
        <time>2022-03-23T14:46:09Z</time>
      </trkpt>
      <trkpt lat="49.96633" lon="2.4253">
        <ele>65.03</ele>
        <time>2022-03-23T14:46:13Z</time>
      </trkpt>
      <trkpt lat="49.9663" lon="2.42502">
        <ele>66.95</ele>
        <time>2022-03-23T14:46:29Z</time>
      </trkpt>
      <trkpt lat="49.96627" lon="2.42475">
        <ele>66.95</ele>
        <time>2022-03-23T14:46:44Z</time>
      </trkpt>
      <trkpt lat="49.96624" lon="2.42444">
        <ele>67.43</ele>
        <time>2022-03-23T14:47:01Z</time>
      </trkpt>
      <trkpt lat="49.96622" lon="2.42424">
        <ele>67.91</ele>
        <time>2022-03-23T14:47:13Z</time>
      </trkpt>
      <trkpt lat="49.96619" lon="2.424">
        <ele>68.39</ele>
        <time>2022-03-23T14:47:26Z</time>
      </trkpt>
      <trkpt lat="49.96616" lon="2.42376">
        <ele>70.31</ele>
        <time>2022-03-23T14:47:40Z</time>
      </trkpt>
      <trkpt lat="49.96614" lon="2.42355">
        <ele>71.76</ele>
        <time>2022-03-23T14:47:52Z</time>
      </trkpt>
      <trkpt lat="49.96611" lon="2.42331">
        <ele>72.72</ele>
        <time>2022-03-23T14:48:07Z</time>
      </trkpt>
      <trkpt lat="49.96608" lon="2.42306">
        <ele>73.2</ele>
        <time>2022-03-23T14:48:21Z</time>
      </trkpt>
      <trkpt lat="49.96605" lon="2.42287">
        <ele>74.16</ele>
        <time>2022-03-23T14:48:32Z</time>
      </trkpt>
      <trkpt lat="49.96603" lon="2.42262">
        <ele>75.6</ele>
        <time>2022-03-23T14:48:46Z</time>
      </trkpt>
      <trkpt lat="49.96599" lon="2.42239">
        <ele>77.52</ele>
        <time>2022-03-23T14:48:59Z</time>
      </trkpt>
      <trkpt lat="49.96596" lon="2.42217">
        <ele>78.97</ele>
        <time>2022-03-23T14:49:13Z</time>
      </trkpt>
      <trkpt lat="49.96593" lon="2.42192">
        <ele>80.41</ele>
        <time>2022-03-23T14:49:28Z</time>
      </trkpt>
      <trkpt lat="49.96591" lon="2.42171">
        <ele>81.37</ele>
        <time>2022-03-23T14:49:40Z</time>
      </trkpt>
      <trkpt lat="49.96591" lon="2.42167">
        <ele>81.37</ele>
        <time>2022-03-23T14:49:42Z</time>
      </trkpt>
      <trkpt lat="49.96588" lon="2.42145">
        <ele>81.85</ele>
        <time>2022-03-23T14:49:55Z</time>
      </trkpt>
      <trkpt lat="49.96588" lon="2.42136">
        <ele>82.33</ele>
        <time>2022-03-23T14:50:00Z</time>
      </trkpt>
      <trkpt lat="49.96585" lon="2.4213">
        <ele>82.81</ele>
        <time>2022-03-23T14:50:04Z</time>
      </trkpt>
      <trkpt lat="49.96572" lon="2.42124">
        <ele>84.25</ele>
        <time>2022-03-23T14:50:16Z</time>
      </trkpt>
      <trkpt lat="49.96556" lon="2.42129">
        <ele>85.69</ele>
        <time>2022-03-23T14:50:29Z</time>
      </trkpt>
      <trkpt lat="49.9654" lon="2.42134">
        <ele>85.69</ele>
        <time>2022-03-23T14:50:43Z</time>
      </trkpt>
      <trkpt lat="49.96536" lon="2.42134">
        <ele>86.18</ele>
        <time>2022-03-23T14:50:46Z</time>
      </trkpt>
      <trkpt lat="49.96517" lon="2.4214">
        <ele>87.62</ele>
        <time>2022-03-23T14:51:02Z</time>
      </trkpt>
      <trkpt lat="49.965" lon="2.42143">
        <ele>89.06</ele>
        <time>2022-03-23T14:51:15Z</time>
      </trkpt>
      <trkpt lat="49.96479" lon="2.42148">
        <ele>90.02</ele>
        <time>2022-03-23T14:51:31Z</time>
      </trkpt>
      <trkpt lat="49.96458" lon="2.42153">
        <ele>90.98</ele>
        <time>2022-03-23T14:51:47Z</time>
      </trkpt>
      <trkpt lat="49.96438" lon="2.42158">
        <ele>92.42</ele>
        <time>2022-03-23T14:52:03Z</time>
      </trkpt>
      <trkpt lat="49.96419" lon="2.42162">
        <ele>93.87</ele>
        <time>2022-03-23T14:52:18Z</time>
      </trkpt>
      <trkpt lat="49.96398" lon="2.42168">
        <ele>94.83</ele>
        <time>2022-03-23T14:52:35Z</time>
      </trkpt>
      <trkpt lat="49.96377" lon="2.42174">
        <ele>94.35</ele>
        <time>2022-03-23T14:52:50Z</time>
      </trkpt>
      <trkpt lat="49.96359" lon="2.42177">
        <ele>93.87</ele>
        <time>2022-03-23T14:53:03Z</time>
      </trkpt>
      <trkpt lat="49.96341" lon="2.42183">
        <ele>91.94</ele>
        <time>2022-03-23T14:53:18Z</time>
      </trkpt>
      <trkpt lat="49.96328" lon="2.42185">
        <ele>90.02</ele>
        <time>2022-03-23T14:53:31Z</time>
      </trkpt>
      <trkpt lat="49.96325" lon="2.42189">
        <ele>89.54</ele>
        <time>2022-03-23T14:53:41Z</time>
      </trkpt>
      <trkpt lat="49.96326" lon="2.42188">
        <ele>90.02</ele>
        <time>2022-03-23T14:53:54Z</time>
      </trkpt>
      <trkpt lat="49.96325" lon="2.42188">
        <ele>90.02</ele>
        <time>2022-03-23T14:54:24Z</time>
      </trkpt>
      <trkpt lat="49.96325" lon="2.42188">
        <ele>90.5</ele>
        <time>2022-03-23T14:54:52Z</time>
      </trkpt>
      <trkpt lat="49.96326" lon="2.42188">
        <ele>90.98</ele>
        <time>2022-03-23T14:55:10Z</time>
      </trkpt>
      <trkpt lat="49.96323" lon="2.42183">
        <ele>90.5</ele>
        <time>2022-03-23T14:55:19Z</time>
      </trkpt>
      <trkpt lat="49.96322" lon="2.42178">
        <ele>90.02</ele>
        <time>2022-03-23T14:55:30Z</time>
      </trkpt>
      <trkpt lat="49.96322" lon="2.42161">
        <ele>90.02</ele>
        <time>2022-03-23T14:55:40Z</time>
      </trkpt>
      <trkpt lat="49.96322" lon="2.42135">
        <ele>90.98</ele>
        <time>2022-03-23T14:55:54Z</time>
      </trkpt>
      <trkpt lat="49.96324" lon="2.42112">
        <ele>92.9</ele>
        <time>2022-03-23T14:56:06Z</time>
      </trkpt>
      <trkpt lat="49.96325" lon="2.42085">
        <ele>94.83</ele>
        <time>2022-03-23T14:56:20Z</time>
      </trkpt>
      <trkpt lat="49.96327" lon="2.42063">
        <ele>94.83</ele>
        <time>2022-03-23T14:56:32Z</time>
      </trkpt>
      <trkpt lat="49.96328" lon="2.4204">
        <ele>94.35</ele>
        <time>2022-03-23T14:56:44Z</time>
      </trkpt>
      <trkpt lat="49.9633" lon="2.42008">
        <ele>95.31</ele>
        <time>2022-03-23T14:57:00Z</time>
      </trkpt>
      <trkpt lat="49.96333" lon="2.41976">
        <ele>96.27</ele>
        <time>2022-03-23T14:57:16Z</time>
      </trkpt>
      <trkpt lat="49.96338" lon="2.41941">
        <ele>97.71</ele>
        <time>2022-03-23T14:57:34Z</time>
      </trkpt>
      <trkpt lat="49.96342" lon="2.41911">
        <ele>98.67</ele>
        <time>2022-03-23T14:57:49Z</time>
      </trkpt>
      <trkpt lat="49.96349" lon="2.41881">
        <ele>99.63</ele>
        <time>2022-03-23T14:58:05Z</time>
      </trkpt>
      <trkpt lat="49.96356" lon="2.41855">
        <ele>98.67</ele>
        <time>2022-03-23T14:58:19Z</time>
      </trkpt>
      <trkpt lat="49.96364" lon="2.41826">
        <ele>100.6</ele>
        <time>2022-03-23T14:58:35Z</time>
      </trkpt>
      <trkpt lat="49.96369" lon="2.41807">
        <ele>101.56</ele>
        <time>2022-03-23T14:58:47Z</time>
      </trkpt>
      <trkpt lat="49.96375" lon="2.41782">
        <ele>102.52</ele>
        <time>2022-03-23T14:59:02Z</time>
      </trkpt>
      <trkpt lat="49.9638" lon="2.41763">
        <ele>103.48</ele>
        <time>2022-03-23T14:59:14Z</time>
      </trkpt>
      <trkpt lat="49.96381" lon="2.41758">
        <ele>104.44</ele>
        <time>2022-03-23T14:59:24Z</time>
      </trkpt>
      <trkpt lat="49.96382" lon="2.4176">
        <ele>103.96</ele>
        <time>2022-03-23T14:59:37Z</time>
      </trkpt>
      <trkpt lat="49.96382" lon="2.41757">
        <ele>103.48</ele>
        <time>2022-03-23T14:59:55Z</time>
      </trkpt>
      <trkpt lat="49.96382" lon="2.41756">
        <ele>103.48</ele>
        <time>2022-03-23T15:00:20Z</time>
      </trkpt>
      <trkpt lat="49.96382" lon="2.41756">
        <ele>103.48</ele>
        <time>2022-03-23T15:00:35Z</time>
      </trkpt>
      <trkpt lat="49.96383" lon="2.41757">
        <ele>103.96</ele>
        <time>2022-03-23T15:00:53Z</time>
      </trkpt>
      <trkpt lat="49.96382" lon="2.41755">
        <ele>105.4</ele>
        <time>2022-03-23T15:01:14Z</time>
      </trkpt>
      <trkpt lat="49.96384" lon="2.41756">
        <ele>105.4</ele>
        <time>2022-03-23T15:01:30Z</time>
      </trkpt>
      <trkpt lat="49.96383" lon="2.41755">
        <ele>104.92</ele>
        <time>2022-03-23T15:01:40Z</time>
      </trkpt>
      <trkpt lat="49.96385" lon="2.41755">
        <ele>104.92</ele>
        <time>2022-03-23T15:01:58Z</time>
      </trkpt>
      <trkpt lat="49.96391" lon="2.41757">
        <ele>104.92</ele>
        <time>2022-03-23T15:02:15Z</time>
      </trkpt>
      <trkpt lat="49.96396" lon="2.41758">
        <ele>104.44</ele>
        <time>2022-03-23T15:02:20Z</time>
      </trkpt>
      <trkpt lat="49.96413" lon="2.41761">
        <ele>104.92</ele>
        <time>2022-03-23T15:02:34Z</time>
      </trkpt>
      <trkpt lat="49.96427" lon="2.41763">
        <ele>105.4</ele>
        <time>2022-03-23T15:02:46Z</time>
      </trkpt>
      <trkpt lat="49.96442" lon="2.41766">
        <ele>105.4</ele>
        <time>2022-03-23T15:02:58Z</time>
      </trkpt>
      <trkpt lat="49.96461" lon="2.41767">
        <ele>104.44</ele>
        <time>2022-03-23T15:03:13Z</time>
      </trkpt>
      <trkpt lat="49.9648" lon="2.41769">
        <ele>104.44</ele>
        <time>2022-03-23T15:03:28Z</time>
      </trkpt>
      <trkpt lat="49.96499" lon="2.41768">
        <ele>103.48</ele>
        <time>2022-03-23T15:03:43Z</time>
      </trkpt>
      <trkpt lat="49.96518" lon="2.41765">
        <ele>103.48</ele>
        <time>2022-03-23T15:03:58Z</time>
      </trkpt>
      <trkpt lat="49.96538" lon="2.41761">
        <ele>102.52</ele>
        <time>2022-03-23T15:04:14Z</time>
      </trkpt>
      <trkpt lat="49.96556" lon="2.41757">
        <ele>102.04</ele>
        <time>2022-03-23T15:04:28Z</time>
      </trkpt>
      <trkpt lat="49.96576" lon="2.41752">
        <ele>101.56</ele>
        <time>2022-03-23T15:04:43Z</time>
      </trkpt>
      <trkpt lat="49.96598" lon="2.41747">
        <ele>101.08</ele>
        <time>2022-03-23T15:05:00Z</time>
      </trkpt>
      <trkpt lat="49.96617" lon="2.41744">
        <ele>100.11</ele>
        <time>2022-03-23T15:05:15Z</time>
      </trkpt>
      <trkpt lat="49.96637" lon="2.41742">
        <ele>99.15</ele>
        <time>2022-03-23T15:05:31Z</time>
      </trkpt>
      <trkpt lat="49.96659" lon="2.41742">
        <ele>99.63</ele>
        <time>2022-03-23T15:05:49Z</time>
      </trkpt>
      <trkpt lat="49.96677" lon="2.41742">
        <ele>98.19</ele>
        <time>2022-03-23T15:06:02Z</time>
      </trkpt>
      <trkpt lat="49.96695" lon="2.41742">
        <ele>96.75</ele>
        <time>2022-03-23T15:06:16Z</time>
      </trkpt>
      <trkpt lat="49.96713" lon="2.41739">
        <ele>95.31</ele>
        <time>2022-03-23T15:06:30Z</time>
      </trkpt>
      <trkpt lat="49.96735" lon="2.41737">
        <ele>92.9</ele>
        <time>2022-03-23T15:06:47Z</time>
      </trkpt>
      <trkpt lat="49.96752" lon="2.41736">
        <ele>91.94</ele>
        <time>2022-03-23T15:07:01Z</time>
      </trkpt>
      <trkpt lat="49.96768" lon="2.41735">
        <ele>92.42</ele>
        <time>2022-03-23T15:07:15Z</time>
      </trkpt>
      <trkpt lat="49.96787" lon="2.4174">
        <ele>92.42</ele>
        <time>2022-03-23T15:07:29Z</time>
      </trkpt>
      <trkpt lat="49.96808" lon="2.41751">
        <ele>93.87</ele>
        <time>2022-03-23T15:07:46Z</time>
      </trkpt>
      <trkpt lat="49.96829" lon="2.41762">
        <ele>93.87</ele>
        <time>2022-03-23T15:08:03Z</time>
      </trkpt>
      <trkpt lat="49.96849" lon="2.41777">
        <ele>94.35</ele>
        <time>2022-03-23T15:08:21Z</time>
      </trkpt>
      <trkpt lat="49.96863" lon="2.41788">
        <ele>94.35</ele>
        <time>2022-03-23T15:08:34Z</time>
      </trkpt>
      <trkpt lat="49.96881" lon="2.41803">
        <ele>94.35</ele>
        <time>2022-03-23T15:08:50Z</time>
      </trkpt>
      <trkpt lat="49.96901" lon="2.41822">
        <ele>92.42</ele>
        <time>2022-03-23T15:09:09Z</time>
      </trkpt>
      <trkpt lat="49.96916" lon="2.41837">
        <ele>90.5</ele>
        <time>2022-03-23T15:09:23Z</time>
      </trkpt>
      <trkpt lat="49.9693" lon="2.41851">
        <ele>88.1</ele>
        <time>2022-03-23T15:09:37Z</time>
      </trkpt>
      <trkpt lat="49.96946" lon="2.41867">
        <ele>85.21</ele>
        <time>2022-03-23T15:09:53Z</time>
      </trkpt>
      <trkpt lat="49.96966" lon="2.41886">
        <ele>84.25</ele>
        <time>2022-03-23T15:10:11Z</time>
      </trkpt>
      <trkpt lat="49.9698" lon="2.41904">
        <ele>83.29</ele>
        <time>2022-03-23T15:10:26Z</time>
      </trkpt>
      <trkpt lat="49.96997" lon="2.41923">
        <ele>82.33</ele>
        <time>2022-03-23T15:10:43Z</time>
      </trkpt>
      <trkpt lat="49.97009" lon="2.4194">
        <ele>81.85</ele>
        <time>2022-03-23T15:10:57Z</time>
      </trkpt>
      <trkpt lat="49.97021" lon="2.4195">
        <ele>78.97</ele>
        <time>2022-03-23T15:11:10Z</time>
      </trkpt>
      <trkpt lat="49.97036" lon="2.41942">
        <ele>74.64</ele>
        <time>2022-03-23T15:11:24Z</time>
      </trkpt>
      <trkpt lat="49.97051" lon="2.41931">
        <ele>72.72</ele>
        <time>2022-03-23T15:11:37Z</time>
      </trkpt>
      <trkpt lat="49.97067" lon="2.41919">
        <ele>70.31</ele>
        <time>2022-03-23T15:11:52Z</time>
      </trkpt>
      <trkpt lat="49.97084" lon="2.41906">
        <ele>67.91</ele>
        <time>2022-03-23T15:12:08Z</time>
      </trkpt>
      <trkpt lat="49.97101" lon="2.41895">
        <ele>65.99</ele>
        <time>2022-03-23T15:12:22Z</time>
      </trkpt>
      <trkpt lat="49.97118" lon="2.41881">
        <ele>65.03</ele>
        <time>2022-03-23T15:12:37Z</time>
      </trkpt>
      <trkpt lat="49.97137" lon="2.41866">
        <ele>63.58</ele>
        <time>2022-03-23T15:12:54Z</time>
      </trkpt>
      <trkpt lat="49.97154" lon="2.41855">
        <ele>62.62</ele>
        <time>2022-03-23T15:13:08Z</time>
      </trkpt>
      <trkpt lat="49.97169" lon="2.41843">
        <ele>61.66</ele>
        <time>2022-03-23T15:13:22Z</time>
      </trkpt>
      <trkpt lat="49.97188" lon="2.41827">
        <ele>61.66</ele>
        <time>2022-03-23T15:13:39Z</time>
      </trkpt>
      <trkpt lat="49.97208" lon="2.41813">
        <ele>60.7</ele>
        <time>2022-03-23T15:13:55Z</time>
      </trkpt>
      <trkpt lat="49.97228" lon="2.41798">
        <ele>58.78</ele>
        <time>2022-03-23T15:14:12Z</time>
      </trkpt>
      <trkpt lat="49.97248" lon="2.41784">
        <ele>58.3</ele>
        <time>2022-03-23T15:14:29Z</time>
      </trkpt>
      <trkpt lat="49.97266" lon="2.4177">
        <ele>57.34</ele>
        <time>2022-03-23T15:14:45Z</time>
      </trkpt>
      <trkpt lat="49.97277" lon="2.41754">
        <ele>57.34</ele>
        <time>2022-03-23T15:14:58Z</time>
      </trkpt>
      <trkpt lat="49.97268" lon="2.41729">
        <ele>57.34</ele>
        <time>2022-03-23T15:15:12Z</time>
      </trkpt>
      <trkpt lat="49.97259" lon="2.41699">
        <ele>58.78</ele>
        <time>2022-03-23T15:15:28Z</time>
      </trkpt>
      <trkpt lat="49.9725" lon="2.41667">
        <ele>60.22</ele>
        <time>2022-03-23T15:15:46Z</time>
      </trkpt>
      <trkpt lat="49.9724" lon="2.4164">
        <ele>60.7</ele>
        <time>2022-03-23T15:16:01Z</time>
      </trkpt>
      <trkpt lat="49.9723" lon="2.41608">
        <ele>62.14</ele>
        <time>2022-03-23T15:16:18Z</time>
      </trkpt>
      <trkpt lat="49.97218" lon="2.41573">
        <ele>63.1</ele>
        <time>2022-03-23T15:16:38Z</time>
      </trkpt>
      <trkpt lat="49.97206" lon="2.41536">
        <ele>63.1</ele>
        <time>2022-03-23T15:16:57Z</time>
      </trkpt>
      <trkpt lat="49.97197" lon="2.41506">
        <ele>62.62</ele>
        <time>2022-03-23T15:17:13Z</time>
      </trkpt>
      <trkpt lat="49.97186" lon="2.41472">
        <ele>63.1</ele>
        <time>2022-03-23T15:17:31Z</time>
      </trkpt>
      <trkpt lat="49.97174" lon="2.41436">
        <ele>64.55</ele>
        <time>2022-03-23T15:17:50Z</time>
      </trkpt>
      <trkpt lat="49.97162" lon="2.41406">
        <ele>64.07</ele>
        <time>2022-03-23T15:18:08Z</time>
      </trkpt>
      <trkpt lat="49.97149" lon="2.41378">
        <ele>65.51</ele>
        <time>2022-03-23T15:18:25Z</time>
      </trkpt>
      <trkpt lat="49.97135" lon="2.41351">
        <ele>66.95</ele>
        <time>2022-03-23T15:18:42Z</time>
      </trkpt>
      <trkpt lat="49.97124" lon="2.41325">
        <ele>66.95</ele>
        <time>2022-03-23T15:18:58Z</time>
      </trkpt>
      <trkpt lat="49.97114" lon="2.41305">
        <ele>67.43</ele>
        <time>2022-03-23T15:19:11Z</time>
      </trkpt>
      <trkpt lat="49.97102" lon="2.41277">
        <ele>68.87</ele>
        <time>2022-03-23T15:19:27Z</time>
      </trkpt>
      <trkpt lat="49.97092" lon="2.41255">
        <ele>71.27</ele>
        <time>2022-03-23T15:19:42Z</time>
      </trkpt>
      <trkpt lat="49.97082" lon="2.41231">
        <ele>72.24</ele>
        <time>2022-03-23T15:19:57Z</time>
      </trkpt>
      <trkpt lat="49.9707" lon="2.41206">
        <ele>74.16</ele>
        <time>2022-03-23T15:20:13Z</time>
      </trkpt>
      <trkpt lat="49.97058" lon="2.41178">
        <ele>75.12</ele>
        <time>2022-03-23T15:20:30Z</time>
      </trkpt>
      <trkpt lat="49.9705" lon="2.41154">
        <ele>76.08</ele>
        <time>2022-03-23T15:20:44Z</time>
      </trkpt>
      <trkpt lat="49.97044" lon="2.41128">
        <ele>77.04</ele>
        <time>2022-03-23T15:20:59Z</time>
      </trkpt>
      <trkpt lat="49.97034" lon="2.41104">
        <ele>77.52</ele>
        <time>2022-03-23T15:21:14Z</time>
      </trkpt>
      <trkpt lat="49.97015" lon="2.41083">
        <ele>80.89</ele>
        <time>2022-03-23T15:21:32Z</time>
      </trkpt>
      <trkpt lat="49.97" lon="2.41061">
        <ele>82.33</ele>
        <time>2022-03-23T15:21:48Z</time>
      </trkpt>
      <trkpt lat="49.96987" lon="2.41036">
        <ele>84.73</ele>
        <time>2022-03-23T15:22:05Z</time>
      </trkpt>
      <trkpt lat="49.96975" lon="2.41009">
        <ele>87.14</ele>
        <time>2022-03-23T15:22:21Z</time>
      </trkpt>
      <trkpt lat="49.96963" lon="2.4099">
        <ele>87.14</ele>
        <time>2022-03-23T15:22:34Z</time>
      </trkpt>
      <trkpt lat="49.9695" lon="2.40978">
        <ele>88.1</ele>
        <time>2022-03-23T15:22:48Z</time>
      </trkpt>
      <trkpt lat="49.96939" lon="2.40972">
        <ele>88.58</ele>
        <time>2022-03-23T15:22:58Z</time>
      </trkpt>
      <trkpt lat="49.96924" lon="2.40969">
        <ele>89.54</ele>
        <time>2022-03-23T15:23:13Z</time>
      </trkpt>
      <trkpt lat="49.9692" lon="2.40967">
        <ele>89.54</ele>
        <time>2022-03-23T15:23:25Z</time>
      </trkpt>
      <trkpt lat="49.9692" lon="2.40968">
        <ele>90.02</ele>
        <time>2022-03-23T15:23:36Z</time>
      </trkpt>
      <trkpt lat="49.9692" lon="2.40968">
        <ele>90.02</ele>
        <time>2022-03-23T15:23:48Z</time>
      </trkpt>
      <trkpt lat="49.9692" lon="2.40968">
        <ele>89.54</ele>
        <time>2022-03-23T15:23:59Z</time>
      </trkpt>
      <trkpt lat="49.9692" lon="2.40967">
        <ele>90.02</ele>
        <time>2022-03-23T15:24:11Z</time>
      </trkpt>
      <trkpt lat="49.96919" lon="2.40967">
        <ele>90.98</ele>
        <time>2022-03-23T15:24:34Z</time>
      </trkpt>
      <trkpt lat="49.96918" lon="2.40968">
        <ele>91.46</ele>
        <time>2022-03-23T15:24:51Z</time>
      </trkpt>
      <trkpt lat="49.96918" lon="2.40967">
        <ele>91.94</ele>
        <time>2022-03-23T15:25:09Z</time>
      </trkpt>
      <trkpt lat="49.96919" lon="2.40966">
        <ele>92.42</ele>
        <time>2022-03-23T15:25:23Z</time>
      </trkpt>
      <trkpt lat="49.96919" lon="2.40966">
        <ele>92.9</ele>
        <time>2022-03-23T15:25:41Z</time>
      </trkpt>
      <trkpt lat="49.96919" lon="2.40966">
        <ele>92.42</ele>
        <time>2022-03-23T15:26:00Z</time>
      </trkpt>
      <trkpt lat="49.96919" lon="2.40967">
        <ele>92.42</ele>
        <time>2022-03-23T15:26:16Z</time>
      </trkpt>
      <trkpt lat="49.9692" lon="2.40967">
        <ele>91.94</ele>
        <time>2022-03-23T15:26:32Z</time>
      </trkpt>
      <trkpt lat="49.9692" lon="2.40968">
        <ele>91.46</ele>
        <time>2022-03-23T15:26:50Z</time>
      </trkpt>
      <trkpt lat="49.96919" lon="2.40967">
        <ele>90.98</ele>
        <time>2022-03-23T15:27:07Z</time>
      </trkpt>
      <trkpt lat="49.96919" lon="2.40966">
        <ele>90.98</ele>
        <time>2022-03-23T15:27:29Z</time>
      </trkpt>
      <trkpt lat="49.96919" lon="2.40966">
        <ele>91.46</ele>
        <time>2022-03-23T15:27:44Z</time>
      </trkpt>
      <trkpt lat="49.96918" lon="2.40965">
        <ele>91.46</ele>
        <time>2022-03-23T15:27:53Z</time>
      </trkpt>
      <trkpt lat="49.96919" lon="2.40966">
        <ele>91.94</ele>
        <time>2022-03-23T15:28:08Z</time>
      </trkpt>
      <trkpt lat="49.96919" lon="2.40966">
        <ele>92.42</ele>
        <time>2022-03-23T15:28:23Z</time>
      </trkpt>
      <trkpt lat="49.96919" lon="2.40967">
        <ele>91.94</ele>
        <time>2022-03-23T15:28:39Z</time>
      </trkpt>
      <trkpt lat="49.96919" lon="2.40967">
        <ele>91.94</ele>
        <time>2022-03-23T15:28:50Z</time>
      </trkpt>
      <trkpt lat="49.9692" lon="2.40965">
        <ele>91.94</ele>
        <time>2022-03-23T15:29:12Z</time>
      </trkpt>
      <trkpt lat="49.9692" lon="2.40967">
        <ele>92.42</ele>
        <time>2022-03-23T15:29:27Z</time>
      </trkpt>
      <trkpt lat="49.9692" lon="2.40968">
        <ele>92.42</ele>
        <time>2022-03-23T15:29:51Z</time>
      </trkpt>
      <trkpt lat="49.9692" lon="2.40967">
        <ele>92.9</ele>
        <time>2022-03-23T15:30:13Z</time>
      </trkpt>
      <trkpt lat="49.9692" lon="2.40965">
        <ele>92.9</ele>
        <time>2022-03-23T15:30:36Z</time>
      </trkpt>
      <trkpt lat="49.96921" lon="2.40966">
        <ele>93.87</ele>
        <time>2022-03-23T15:30:57Z</time>
      </trkpt>
      <trkpt lat="49.96922" lon="2.40965">
        <ele>93.87</ele>
        <time>2022-03-23T15:31:07Z</time>
      </trkpt>
      <trkpt lat="49.96922" lon="2.40965">
        <ele>93.87</ele>
        <time>2022-03-23T15:31:17Z</time>
      </trkpt>
      <trkpt lat="49.96924" lon="2.40967">
        <ele>93.39</ele>
        <time>2022-03-23T15:31:26Z</time>
      </trkpt>
      <trkpt lat="49.96938" lon="2.40973">
        <ele>91.94</ele>
        <time>2022-03-23T15:31:39Z</time>
      </trkpt>
      <trkpt lat="49.96942" lon="2.40974">
        <ele>91.46</ele>
        <time>2022-03-23T15:31:43Z</time>
      </trkpt>
      <trkpt lat="49.96955" lon="2.4098">
        <ele>88.58</ele>
        <time>2022-03-23T15:31:55Z</time>
      </trkpt>
      <trkpt lat="49.96957" lon="2.40982">
        <ele>88.58</ele>
        <time>2022-03-23T15:31:57Z</time>
      </trkpt>
      <trkpt lat="49.96963" lon="2.40988">
        <ele>87.62</ele>
        <time>2022-03-23T15:32:02Z</time>
      </trkpt>
      <trkpt lat="49.96978" lon="2.41012">
        <ele>88.1</ele>
        <time>2022-03-23T15:32:16Z</time>
      </trkpt>
      <trkpt lat="49.96995" lon="2.41047">
        <ele>90.5</ele>
        <time>2022-03-23T15:32:33Z</time>
      </trkpt>
      <trkpt lat="49.97008" lon="2.41068">
        <ele>90.02</ele>
        <time>2022-03-23T15:32:47Z</time>
      </trkpt>
      <trkpt lat="49.97021" lon="2.41084">
        <ele>88.1</ele>
        <time>2022-03-23T15:33:01Z</time>
      </trkpt>
      <trkpt lat="49.97036" lon="2.411">
        <ele>87.14</ele>
        <time>2022-03-23T15:33:15Z</time>
      </trkpt>
      <trkpt lat="49.97046" lon="2.41123">
        <ele>84.25</ele>
        <time>2022-03-23T15:33:30Z</time>
      </trkpt>
      <trkpt lat="49.97046" lon="2.4113">
        <ele>83.29</ele>
        <time>2022-03-23T15:33:34Z</time>
      </trkpt>
      <trkpt lat="49.97034" lon="2.41135">
        <ele>83.29</ele>
        <time>2022-03-23T15:33:45Z</time>
      </trkpt>
      <trkpt lat="49.97018" lon="2.41136">
        <ele>83.29</ele>
        <time>2022-03-23T15:33:58Z</time>
      </trkpt>
      <trkpt lat="49.97002" lon="2.41139">
        <ele>83.29</ele>
        <time>2022-03-23T15:34:11Z</time>
      </trkpt>
      <trkpt lat="49.96986" lon="2.41143">
        <ele>84.73</ele>
        <time>2022-03-23T15:34:25Z</time>
      </trkpt>
      <trkpt lat="49.96971" lon="2.41147">
        <ele>87.14</ele>
        <time>2022-03-23T15:34:38Z</time>
      </trkpt>
      <trkpt lat="49.96965" lon="2.41149">
        <ele>87.62</ele>
        <time>2022-03-23T15:34:44Z</time>
      </trkpt>
      <trkpt lat="49.96949" lon="2.41152">
        <ele>89.54</ele>
        <time>2022-03-23T15:34:58Z</time>
      </trkpt>
      <trkpt lat="49.96939" lon="2.41154">
        <ele>90.98</ele>
        <time>2022-03-23T15:35:06Z</time>
      </trkpt>
      <trkpt lat="49.96924" lon="2.41157">
        <ele>92.42</ele>
        <time>2022-03-23T15:35:19Z</time>
      </trkpt>
      <trkpt lat="49.96912" lon="2.41157">
        <ele>92.42</ele>
        <time>2022-03-23T15:35:31Z</time>
      </trkpt>
      <trkpt lat="49.96906" lon="2.41157">
        <ele>93.39</ele>
        <time>2022-03-23T15:35:37Z</time>
      </trkpt>
      <trkpt lat="49.96894" lon="2.41154">
        <ele>94.35</ele>
        <time>2022-03-23T15:35:49Z</time>
      </trkpt>
      <trkpt lat="49.96888" lon="2.41152">
        <ele>93.39</ele>
        <time>2022-03-23T15:35:58Z</time>
      </trkpt>
      <trkpt lat="49.96876" lon="2.41149">
        <ele>94.35</ele>
        <time>2022-03-23T15:36:10Z</time>
      </trkpt>
      <trkpt lat="49.96869" lon="2.41149">
        <ele>94.35</ele>
        <time>2022-03-23T15:36:19Z</time>
      </trkpt>
      <trkpt lat="49.96863" lon="2.41147">
        <ele>94.83</ele>
        <time>2022-03-23T15:36:24Z</time>
      </trkpt>
      <trkpt lat="49.96856" lon="2.41142">
        <ele>95.79</ele>
        <time>2022-03-23T15:36:32Z</time>
      </trkpt>
      <trkpt lat="49.96855" lon="2.41139">
        <ele>95.31</ele>
        <time>2022-03-23T15:36:34Z</time>
      </trkpt>
      <trkpt lat="49.96864" lon="2.41121">
        <ele>94.83</ele>
        <time>2022-03-23T15:36:47Z</time>
      </trkpt>
      <trkpt lat="49.96874" lon="2.41101">
        <ele>94.35</ele>
        <time>2022-03-23T15:37:01Z</time>
      </trkpt>
      <trkpt lat="49.96886" lon="2.41081">
        <ele>92.9</ele>
        <time>2022-03-23T15:37:15Z</time>
      </trkpt>
      <trkpt lat="49.96895" lon="2.41053">
        <ele>93.39</ele>
        <time>2022-03-23T15:37:31Z</time>
      </trkpt>
      <trkpt lat="49.96897" lon="2.41032">
        <ele>94.35</ele>
        <time>2022-03-23T15:37:42Z</time>
      </trkpt>
      <trkpt lat="49.96888" lon="2.41019">
        <ele>93.87</ele>
        <time>2022-03-23T15:37:53Z</time>
      </trkpt>
      <trkpt lat="49.96878" lon="2.41014">
        <ele>92.9</ele>
        <time>2022-03-23T15:38:03Z</time>
      </trkpt>
      <trkpt lat="49.96862" lon="2.41007">
        <ele>93.39</ele>
        <time>2022-03-23T15:38:17Z</time>
      </trkpt>
      <trkpt lat="49.96849" lon="2.41003">
        <ele>94.83</ele>
        <time>2022-03-23T15:38:29Z</time>
      </trkpt>
      <trkpt lat="49.9683" lon="2.41012">
        <ele>96.75</ele>
        <time>2022-03-23T15:38:44Z</time>
      </trkpt>
      <trkpt lat="49.96819" lon="2.41017">
        <ele>96.75</ele>
        <time>2022-03-23T15:38:55Z</time>
      </trkpt>
      <trkpt lat="49.96803" lon="2.41032">
        <ele>98.67</ele>
        <time>2022-03-23T15:39:10Z</time>
      </trkpt>
      <trkpt lat="49.96784" lon="2.41046">
        <ele>100.11</ele>
        <time>2022-03-23T15:39:27Z</time>
      </trkpt>
      <trkpt lat="49.96766" lon="2.41047">
        <ele>101.56</ele>
        <time>2022-03-23T15:39:42Z</time>
      </trkpt>
      <trkpt lat="49.96756" lon="2.41031">
        <ele>101.08</ele>
        <time>2022-03-23T15:39:55Z</time>
      </trkpt>
      <trkpt lat="49.96743" lon="2.4101">
        <ele>102.52</ele>
        <time>2022-03-23T15:40:11Z</time>
      </trkpt>
      <trkpt lat="49.96736" lon="2.40998">
        <ele>102.52</ele>
        <time>2022-03-23T15:40:19Z</time>
      </trkpt>
      <trkpt lat="49.96719" lon="2.40973">
        <ele>104.44</ele>
        <time>2022-03-23T15:40:36Z</time>
      </trkpt>
      <trkpt lat="49.96705" lon="2.40954">
        <ele>103.96</ele>
        <time>2022-03-23T15:40:51Z</time>
      </trkpt>
      <trkpt lat="49.96689" lon="2.40938">
        <ele>104.92</ele>
        <time>2022-03-23T15:41:06Z</time>
      </trkpt>
      <trkpt lat="49.96677" lon="2.40927">
        <ele>105.4</ele>
        <time>2022-03-23T15:41:19Z</time>
      </trkpt>
      <trkpt lat="49.96666" lon="2.40916">
        <ele>105.88</ele>
        <time>2022-03-23T15:41:30Z</time>
      </trkpt>
      <trkpt lat="49.96652" lon="2.40899">
        <ele>105.88</ele>
        <time>2022-03-23T15:41:44Z</time>
      </trkpt>
      <trkpt lat="49.96641" lon="2.4088">
        <ele>106.36</ele>
        <time>2022-03-23T15:41:57Z</time>
      </trkpt>
      <trkpt lat="49.9663" lon="2.40859">
        <ele>106.84</ele>
        <time>2022-03-23T15:42:11Z</time>
      </trkpt>
      <trkpt lat="49.96618" lon="2.40837">
        <ele>106.84</ele>
        <time>2022-03-23T15:42:25Z</time>
      </trkpt>
      <trkpt lat="49.96608" lon="2.40815">
        <ele>107.32</ele>
        <time>2022-03-23T15:42:38Z</time>
      </trkpt>
      <trkpt lat="49.96594" lon="2.40793">
        <ele>107.81</ele>
        <time>2022-03-23T15:42:54Z</time>
      </trkpt>
      <trkpt lat="49.96579" lon="2.40778">
        <ele>108.29</ele>
        <time>2022-03-23T15:43:08Z</time>
      </trkpt>
      <trkpt lat="49.96562" lon="2.40766">
        <ele>108.77</ele>
        <time>2022-03-23T15:43:24Z</time>
      </trkpt>
      <trkpt lat="49.96553" lon="2.40756">
        <ele>107.32</ele>
        <time>2022-03-23T15:43:34Z</time>
      </trkpt>
      <trkpt lat="49.96543" lon="2.40757">
        <ele>108.29</ele>
        <time>2022-03-23T15:43:45Z</time>
      </trkpt>
      <trkpt lat="49.9653" lon="2.40766">
        <ele>107.81</ele>
        <time>2022-03-23T15:43:59Z</time>
      </trkpt>
      <trkpt lat="49.96522" lon="2.40775">
        <ele>105.88</ele>
        <time>2022-03-23T15:44:09Z</time>
      </trkpt>
      <trkpt lat="49.96517" lon="2.40802">
        <ele>106.84</ele>
        <time>2022-03-23T15:44:25Z</time>
      </trkpt>
      <trkpt lat="49.96513" lon="2.40822">
        <ele>106.84</ele>
        <time>2022-03-23T15:44:39Z</time>
      </trkpt>
      <trkpt lat="49.96511" lon="2.40843">
        <ele>107.81</ele>
        <time>2022-03-23T15:44:52Z</time>
      </trkpt>
      <trkpt lat="49.96508" lon="2.40862">
        <ele>108.29</ele>
        <time>2022-03-23T15:45:04Z</time>
      </trkpt>
      <trkpt lat="49.96509" lon="2.40873">
        <ele>108.77</ele>
        <time>2022-03-23T15:45:15Z</time>
      </trkpt>
      <trkpt lat="49.9651" lon="2.40876">
        <ele>110.21</ele>
        <time>2022-03-23T15:45:25Z</time>
      </trkpt>
      <trkpt lat="49.96504" lon="2.40877">
        <ele>107.81</ele>
        <time>2022-03-23T15:45:36Z</time>
      </trkpt>
      <trkpt lat="49.96483" lon="2.40872">
        <ele>105.88</ele>
        <time>2022-03-23T15:45:52Z</time>
      </trkpt>
      <trkpt lat="49.96482" lon="2.40872">
        <ele>105.88</ele>
        <time>2022-03-23T15:45:53Z</time>
      </trkpt>
      <trkpt lat="49.96463" lon="2.40867">
        <ele>105.4</ele>
        <time>2022-03-23T15:46:08Z</time>
      </trkpt>
      <trkpt lat="49.96441" lon="2.40862">
        <ele>106.36</ele>
        <time>2022-03-23T15:46:25Z</time>
      </trkpt>
      <trkpt lat="49.96422" lon="2.40858">
        <ele>107.32</ele>
        <time>2022-03-23T15:46:40Z</time>
      </trkpt>
      <trkpt lat="49.96405" lon="2.40851">
        <ele>107.81</ele>
        <time>2022-03-23T15:46:54Z</time>
      </trkpt>
      <trkpt lat="49.96388" lon="2.40848">
        <ele>108.29</ele>
        <time>2022-03-23T15:47:07Z</time>
      </trkpt>
      <trkpt lat="49.96369" lon="2.40841">
        <ele>107.81</ele>
        <time>2022-03-23T15:47:23Z</time>
      </trkpt>
      <trkpt lat="49.96351" lon="2.40834">
        <ele>108.29</ele>
        <time>2022-03-23T15:47:38Z</time>
      </trkpt>
      <trkpt lat="49.96332" lon="2.40829">
        <ele>108.29</ele>
        <time>2022-03-23T15:47:53Z</time>
      </trkpt>
      <trkpt lat="49.96314" lon="2.40825">
        <ele>107.32</ele>
        <time>2022-03-23T15:48:08Z</time>
      </trkpt>
      <trkpt lat="49.96293" lon="2.40824">
        <ele>107.32</ele>
        <time>2022-03-23T15:48:24Z</time>
      </trkpt>
      <trkpt lat="49.9629" lon="2.40828">
        <ele>107.81</ele>
        <time>2022-03-23T15:48:28Z</time>
      </trkpt>
      <trkpt lat="49.96285" lon="2.40847">
        <ele>106.36</ele>
        <time>2022-03-23T15:48:41Z</time>
      </trkpt>
      <trkpt lat="49.96281" lon="2.40877">
        <ele>104.92</ele>
        <time>2022-03-23T15:48:58Z</time>
      </trkpt>
      <trkpt lat="49.96278" lon="2.409">
        <ele>105.88</ele>
        <time>2022-03-23T15:49:11Z</time>
      </trkpt>
      <trkpt lat="49.96282" lon="2.40912">
        <ele>107.81</ele>
        <time>2022-03-23T15:49:24Z</time>
      </trkpt>
      <trkpt lat="49.96284" lon="2.40912">
        <ele>108.29</ele>
        <time>2022-03-23T15:49:39Z</time>
      </trkpt>
      <trkpt lat="49.96285" lon="2.40914">
        <ele>109.73</ele>
        <time>2022-03-23T15:50:00Z</time>
      </trkpt>
      <trkpt lat="49.96285" lon="2.40914">
        <ele>110.21</ele>
        <time>2022-03-23T15:50:21Z</time>
      </trkpt>
      <trkpt lat="49.96285" lon="2.40916">
        <ele>110.21</ele>
        <time>2022-03-23T15:50:49Z</time>
      </trkpt>
      <trkpt lat="49.96286" lon="2.40916">
        <ele>110.69</ele>
        <time>2022-03-23T15:51:15Z</time>
      </trkpt>
      <trkpt lat="49.96285" lon="2.40915">
        <ele>109.73</ele>
        <time>2022-03-23T15:51:41Z</time>
      </trkpt>
      <trkpt lat="49.96284" lon="2.40914">
        <ele>111.17</ele>
        <time>2022-03-23T15:52:04Z</time>
      </trkpt>
      <trkpt lat="49.96285" lon="2.40913">
        <ele>111.65</ele>
        <time>2022-03-23T15:52:28Z</time>
      </trkpt>
      <trkpt lat="49.96285" lon="2.4091">
        <ele>112.61</ele>
        <time>2022-03-23T15:52:57Z</time>
      </trkpt>
      <trkpt lat="49.96285" lon="2.4091">
        <ele>113.57</ele>
        <time>2022-03-23T15:53:20Z</time>
      </trkpt>
      <trkpt lat="49.96285" lon="2.40911">
        <ele>114.53</ele>
        <time>2022-03-23T15:53:44Z</time>
      </trkpt>
      <trkpt lat="49.96285" lon="2.4091">
        <ele>114.53</ele>
        <time>2022-03-23T15:54:09Z</time>
      </trkpt>
      <trkpt lat="49.96285" lon="2.4091">
        <ele>114.53</ele>
        <time>2022-03-23T15:54:37Z</time>
      </trkpt>
      <trkpt lat="49.96285" lon="2.4091">
        <ele>115.5</ele>
        <time>2022-03-23T15:55:02Z</time>
      </trkpt>
      <trkpt lat="49.96284" lon="2.4091">
        <ele>115.5</ele>
        <time>2022-03-23T15:55:27Z</time>
      </trkpt>
      <trkpt lat="49.96283" lon="2.4091">
        <ele>115.01</ele>
        <time>2022-03-23T15:55:38Z</time>
      </trkpt>
      <trkpt lat="49.96283" lon="2.4091">
        <ele>115.01</ele>
        <time>2022-03-23T15:55:51Z</time>
      </trkpt>
      <trkpt lat="49.9628" lon="2.40908">
        <ele>115.5</ele>
        <time>2022-03-23T15:56:09Z</time>
      </trkpt>
      <trkpt lat="49.9628" lon="2.40898">
        <ele>114.53</ele>
        <time>2022-03-23T15:56:24Z</time>
      </trkpt>
      <trkpt lat="49.96283" lon="2.40873">
        <ele>111.65</ele>
        <time>2022-03-23T15:56:37Z</time>
      </trkpt>
      <trkpt lat="49.96283" lon="2.40871">
        <ele>111.65</ele>
        <time>2022-03-23T15:56:38Z</time>
      </trkpt>
      <trkpt lat="49.96286" lon="2.40847">
        <ele>109.25</ele>
        <time>2022-03-23T15:56:51Z</time>
      </trkpt>
      <trkpt lat="49.96289" lon="2.40828">
        <ele>107.81</ele>
        <time>2022-03-23T15:57:03Z</time>
      </trkpt>
      <trkpt lat="49.9629" lon="2.40825">
        <ele>107.81</ele>
        <time>2022-03-23T15:57:05Z</time>
      </trkpt>
      <trkpt lat="49.96295" lon="2.40824">
        <ele>108.29</ele>
        <time>2022-03-23T15:57:10Z</time>
      </trkpt>
      <trkpt lat="49.96314" lon="2.40831">
        <ele>107.81</ele>
        <time>2022-03-23T15:57:27Z</time>
      </trkpt>
      <trkpt lat="49.96332" lon="2.40838">
        <ele>106.84</ele>
        <time>2022-03-23T15:57:43Z</time>
      </trkpt>
      <trkpt lat="49.96351" lon="2.40843">
        <ele>107.81</ele>
        <time>2022-03-23T15:57:57Z</time>
      </trkpt>
      <trkpt lat="49.96372" lon="2.40846">
        <ele>110.69</ele>
        <time>2022-03-23T15:58:14Z</time>
      </trkpt>
      <trkpt lat="49.96384" lon="2.4085">
        <ele>112.61</ele>
        <time>2022-03-23T15:58:26Z</time>
      </trkpt>
      <trkpt lat="49.964" lon="2.40852">
        <ele>114.05</ele>
        <time>2022-03-23T15:58:39Z</time>
      </trkpt>
      <trkpt lat="49.96416" lon="2.40857">
        <ele>114.53</ele>
        <time>2022-03-23T15:58:52Z</time>
      </trkpt>
      <trkpt lat="49.96431" lon="2.40862">
        <ele>113.57</ele>
        <time>2022-03-23T15:59:05Z</time>
      </trkpt>
      <trkpt lat="49.96448" lon="2.40867">
        <ele>113.57</ele>
        <time>2022-03-23T15:59:19Z</time>
      </trkpt>
      <trkpt lat="49.96465" lon="2.40873">
        <ele>112.13</ele>
        <time>2022-03-23T15:59:33Z</time>
      </trkpt>
      <trkpt lat="49.9648" lon="2.40876">
        <ele>110.21</ele>
        <time>2022-03-23T15:59:46Z</time>
      </trkpt>
      <trkpt lat="49.96498" lon="2.40883">
        <ele>110.69</ele>
        <time>2022-03-23T16:00:02Z</time>
      </trkpt>
      <trkpt lat="49.9651" lon="2.40883">
        <ele>110.69</ele>
        <time>2022-03-23T16:00:16Z</time>
      </trkpt>
      <trkpt lat="49.96515" lon="2.40887">
        <ele>111.17</ele>
        <time>2022-03-23T16:00:28Z</time>
      </trkpt>
      <trkpt lat="49.96519" lon="2.40898">
        <ele>107.81</ele>
        <time>2022-03-23T16:00:39Z</time>
      </trkpt>
      <trkpt lat="49.96522" lon="2.40905">
        <ele>106.36</ele>
        <time>2022-03-23T16:00:43Z</time>
      </trkpt>
      <trkpt lat="49.96532" lon="2.4092">
        <ele>104.44</ele>
        <time>2022-03-23T16:00:53Z</time>
      </trkpt>
      <trkpt lat="49.96542" lon="2.40937">
        <ele>103.48</ele>
        <time>2022-03-23T16:01:05Z</time>
      </trkpt>
      <trkpt lat="49.96544" lon="2.40937">
        <ele>105.4</ele>
        <time>2022-03-23T16:01:11Z</time>
      </trkpt>
    </trkseg>
  </trk>
</gpx>